Observation data for Happy on 02/12/2018      Previous  Date  Next       Current Mesonet Observations  Soil Data  Daily Summary Page  Observations in Plain Language
KHA2 120600Z 20005KT M08/M16 A3021 RMK A01 T10761164  RH  049%=      5-min Rain = 0
KHA2 120601Z 20005KT M08/M16 A3022 RMK A01 T10751164  RH  049%=      5-min Rain = 0
KHA2 120602Z 19005KT M08/M16 A3022 RMK A01 T10751164  RH  049%=      5-min Rain = 0
KHA2 120603Z 19005KT M08/M16 A3022 RMK A01 T10751164  RH  049%=      5-min Rain = 0
KHA2 120604Z 19005KT M08/M17 A3022 RMK A01 T10761165  RH  049%=      5-min Rain = 0
KHA2 120605Z 19005KT M08/M17 A3022 RMK A01 T10761165  RH  049%=      5-min Rain = 0
KHA2 120606Z 18005KT M08/M17 A3022 RMK A01 T10771165  RH  049%=      5-min Rain = 0
KHA2 120607Z 19006KT M08/M17 A3022 RMK A01 T10771165  RH  049%=      5-min Rain = 0
KHA2 120608Z 19006KT M08/M17 A3022 RMK A01 T10771165  RH  049%=      5-min Rain = 0
KHA2 120609Z 19006KT M08/M17 A3022 RMK A01 T10781167  RH  049%=      5-min Rain = 0
KHA2 120610Z 19006KT M08/M17 A3022 RMK A01 T10801168  RH  049%=      5-min Rain = 0
KHA2 120611Z 19006KT M08/M17 A3022 RMK A01 T10811168  RH  050%=      5-min Rain = 0
KHA2 120612Z 19006KT M08/M17 A3022 RMK A01 T10821167  RH  050%=      5-min Rain = 0
KHA2 120613Z 19006KT M08/M17 A3022 RMK A01 T10811167  RH  050%=      5-min Rain = 0
KHA2 120614Z 19006KT M08/M17 A3022 RMK A01 T10821166  RH  051%=      5-min Rain = 0
KHA2 120615Z 19006KT M08/M17 A3022 RMK A01 T10811165  RH  051%=      5-min Rain = 0
KHA2 120616Z 19007KT M08/M16 A3022 RMK A01 T10791163  RH  051%=      5-min Rain = 0
KHA2 120617Z 19007KT M08/M16 A3022 RMK A01 T10781163  RH  051%=      5-min Rain = 0
KHA2 120618Z 19006KT M08/M16 A3022 RMK A01 T10791164  RH  050%=      5-min Rain = 0
KHA2 120619Z 19006KT M08/M17 A3022 RMK A01 T10791165  RH  050%=      5-min Rain = 0
KHA2 120620Z 19006KT M08/M17 A3022 RMK A01 T10791165  RH  050%=      5-min Rain = 0
KHA2 120621Z 19006KT M08/M17 A3022 RMK A01 T10801165  RH  050%=      5-min Rain = 0
KHA2 120622Z 19006KT M08/M16 A3022 RMK A01 T10801164  RH  051%=      5-min Rain = 0
KHA2 120623Z 18006KT M08/M16 A3022 RMK A01 T10801164  RH  051%=      5-min Rain = 0
KHA2 120624Z 19006KT M08/M16 A3022 RMK A01 T10791162  RH  051%=      5-min Rain = 0
KHA2 120625Z 19006KT M08/M16 A3022 RMK A01 T10771160  RH  051%=      5-min Rain = 0
KHA2 120626Z 18006KT M08/M16 A3022 RMK A01 T10771160  RH  051%=      5-min Rain = 0
KHA2 120627Z 18005KT M08/M16 A3022 RMK A01 T10761160  RH  051%=      5-min Rain = 0
KHA2 120628Z 18005KT M08/M16 A3022 RMK A01 T10761161  RH  051%=      5-min Rain = 0
KHA2 120629Z 18005KT M08/M16 A3022 RMK A01 T10771162  RH  050%=      5-min Rain = 0
KHA2 120630Z 17005KT M08/M16 A3022 RMK A01 T10781164  RH  050%=      5-min Rain = 0
KHA2 120631Z 18005KT M08/M16 A3022 RMK A01 T10791164  RH  051%=      5-min Rain = 0
KHA2 120632Z 18005KT M08/M17 A3022 RMK A01 T10811165  RH  051%=      5-min Rain = 0
KHA2 120633Z 18006KT M08/M17 A3022 RMK A01 T10821166  RH  051%=      5-min Rain = 0
KHA2 120634Z 18006KT M08/M17 A3023 RMK A01 T10831165  RH  051%=      5-min Rain = 0
KHA2 120635Z 19006KT M08/M17 A3023 RMK A01 T10831165  RH  052%=      5-min Rain = 0
KHA2 120636Z 19005KT M08/M17 A3023 RMK A01 T10841165  RH  052%=      5-min Rain = 0
KHA2 120637Z 18006KT M08/M17 A3023 RMK A01 T10841165  RH  052%=      5-min Rain = 0
KHA2 120638Z 18006KT M09/M17 A3023 RMK A01 T10851166  RH  052%=      5-min Rain = 0
KHA2 120639Z 18006KT M09/M17 A3023 RMK A01 T10861166  RH  052%=      5-min Rain = 0
KHA2 120640Z 18006KT M09/M17 A3023 RMK A01 T10861166  RH  053%=      5-min Rain = 0
KHA2 120641Z 19006KT M09/M17 A3023 RMK A01 T10861165  RH  053%=      5-min Rain = 0
KHA2 120642Z 18006KT M09/M17 A3023 RMK A01 T10871165  RH  053%=      5-min Rain = 0
KHA2 120643Z 18006KT M09/M17 A3023 RMK A01 T10871165  RH  053%=      5-min Rain = 0
KHA2 120644Z 18006KT M09/M16 A3023 RMK A01 T10871164  RH  054%=      5-min Rain = 0
KHA2 120645Z 18006KT M09/M16 A3023 RMK A01 T10861162  RH  054%=      5-min Rain = 0
KHA2 120646Z 18005KT M09/M16 A3023 RMK A01 T10851162  RH  054%=      5-min Rain = 0
KHA2 120647Z 18005KT M09/M16 A3023 RMK A01 T10851161  RH  054%=      5-min Rain = 0
KHA2 120648Z 18005KT M08/M16 A3023 RMK A01 T10841161  RH  054%=      5-min Rain = 0
KHA2 120649Z 18005KT M08/M16 A3023 RMK A01 T10841161  RH  054%=      5-min Rain = 0
KHA2 120650Z 18005KT M08/M16 A3023 RMK A01 T10841161  RH  054%=      5-min Rain = 0
KHA2 120651Z 18004KT M08/M16 A3023 RMK A01 T10841161  RH  054%=      5-min Rain = 0
KHA2 120652Z 18004KT M08/M16 A3023 RMK A01 T10831161  RH  054%=      5-min Rain = 0
KHA2 120653Z 18005KT M08/M16 A3023 RMK A01 T10831160  RH  054%=      5-min Rain = 0
KHA2 120654Z 18005KT M08/M16 A3023 RMK A01 T10831160  RH  053%=      5-min Rain = 0
KHA2 120655Z 18005KT M08/M16 A3023 RMK A01 T10831161  RH  053%=      5-min Rain = 0
KHA2 120656Z 18005KT M08/M16 A3023 RMK A01 T10831161  RH  053%=      5-min Rain = 0
KHA2 120657Z 18005KT M08/M16 A3023 RMK A01 T10831161  RH  053%=      5-min Rain = 0
KHA2 120658Z 18005KT M08/M16 A3023 RMK A01 T10821160  RH  053%=      5-min Rain = 0
KHA2 120659Z 18005KT M08/M16 A3023 RMK A01 T10831160  RH  053%=      5-min Rain = 0
KHA2 120700Z 18006KT M08/M16 A3023 RMK A01 T10821160  RH  053%=      5-min Rain = 0
KHA2 120701Z 18006KT M08/M16 A3023 RMK A01 T10811159  RH  053%=      5-min Rain = 0
KHA2 120702Z 18006KT M08/M16 A3023 RMK A01 T10811160  RH  053%=      5-min Rain = 0
KHA2 120703Z 19006KT M08/M16 A3023 RMK A01 T10811160  RH  053%=      5-min Rain = 0
KHA2 120704Z 19006KT M08/M16 A3023 RMK A01 T10801160  RH  053%=      5-min Rain = 0
KHA2 120705Z 19006KT M08/M16 A3023 RMK A01 T10791159  RH  053%=      5-min Rain = 0
KHA2 120706Z 19006KT M08/M16 A3023 RMK A01 T10791159  RH  053%=      5-min Rain = 0
KHA2 120707Z 19006KT M08/M16 A3023 RMK A01 T10801161  RH  052%=      5-min Rain = 0
KHA2 120708Z 19006KT M08/M16 A3023 RMK A01 T10831164  RH  052%=      5-min Rain = 0
KHA2 120709Z 18006KT M08/M16 A3023 RMK A01 T10841164  RH  053%=      5-min Rain = 0
KHA2 120710Z 18005KT M08/M16 A3023 RMK A01 T10841162  RH  053%=      5-min Rain = 0
KHA2 120711Z 17005KT M08/M16 A3023 RMK A01 T10841160  RH  054%=      5-min Rain = 0
KHA2 120712Z 16005KT M08/M16 A3023 RMK A01 T10831159  RH  054%=      5-min Rain = 0
KHA2 120713Z 16005KT M08/M16 A3023 RMK A01 T10821159  RH  054%=      5-min Rain = 0
KHA2 120714Z 17005KT M08/M16 A3023 RMK A01 T10821159  RH  054%=      5-min Rain = 0
KHA2 120715Z 17005KT M08/M16 A3023 RMK A01 T10811158  RH  054%=      5-min Rain = 0
KHA2 120716Z 18006KT M08/M16 A3023 RMK A01 T10791158  RH  053%=      5-min Rain = 0
KHA2 120717Z 18006KT M08/M16 A3023 RMK A01 T10791159  RH  053%=      5-min Rain = 0
KHA2 120718Z 18006KT M08/M16 A3023 RMK A01 T10791159  RH  052%=      5-min Rain = 0
KHA2 120719Z 18006KT M08/M16 A3023 RMK A01 T10781159  RH  052%=      5-min Rain = 0
KHA2 120720Z 18006KT M08/M16 A3023 RMK A01 T10781159  RH  052%=      5-min Rain = 0
KHA2 120721Z 18006KT M08/M16 A3023 RMK A01 T10771159  RH  052%=      5-min Rain = 0
KHA2 120722Z 18006KT M08/M16 A3023 RMK A01 T10771159  RH  052%=      5-min Rain = 0
KHA2 120723Z 18006KT M08/M16 A3023 RMK A01 T10781161  RH  052%=      5-min Rain = 0
KHA2 120724Z 18006KT M08/M16 A3023 RMK A01 T10811163  RH  051%=      5-min Rain = 0
KHA2 120725Z 18006KT M08/M16 A3023 RMK A01 T10821164  RH  052%=      5-min Rain = 0
KHA2 120726Z 18006KT M08/M16 A3023 RMK A01 T10831163  RH  052%=      5-min Rain = 0
KHA2 120727Z 17006KT M08/M16 A3023 RMK A01 T10821161  RH  053%=      5-min Rain = 0
KHA2 120728Z 17006KT M08/M16 A3023 RMK A01 T10801159  RH  053%=      5-min Rain = 0
KHA2 120729Z 17006KT M08/M16 A3023 RMK A01 T10791159  RH  053%=      5-min Rain = 0
KHA2 120730Z 18006KT M08/M16 A3023 RMK A01 T10781159  RH  052%=      5-min Rain = 0
KHA2 120731Z 19007KT M08/M16 A3023 RMK A01 T10791161  RH  052%=      5-min Rain = 0
KHA2 120732Z 19007KT M08/M16 A3023 RMK A01 T10801162  RH  052%=      5-min Rain = 0
KHA2 120733Z 19007KT M08/M16 A3023 RMK A01 T10811163  RH  052%=      5-min Rain = 0
KHA2 120734Z 19007KT M08/M16 A3023 RMK A01 T10821164  RH  052%=      5-min Rain = 0
KHA2 120735Z 19007KT M08/M17 A3023 RMK A01 T10831165  RH  052%=      5-min Rain = 0
KHA2 120736Z 19007KT M08/M16 A3023 RMK A01 T10841164  RH  052%=      5-min Rain = 0
KHA2 120737Z 19007KT M08/M16 A3024 RMK A01 T10841164  RH  052%=      5-min Rain = 0
KHA2 120738Z 19007KT M08/M16 A3024 RMK A01 T10841164  RH  052%=      5-min Rain = 0
KHA2 120739Z 19007KT M08/M16 A3024 RMK A01 T10841164  RH  053%=      5-min Rain = 0
KHA2 120740Z 19007KT M08/M16 A3024 RMK A01 T10841164  RH  053%=      5-min Rain = 0
KHA2 120741Z 19007KT M09/M16 A3024 RMK A01 T10851163  RH  053%=      5-min Rain = 0
KHA2 120742Z 19007KT M09/M16 A3024 RMK A01 T10851163  RH  053%=      5-min Rain = 0
KHA2 120743Z 19007KT M09/M16 A3024 RMK A01 T10851163  RH  053%=      5-min Rain = 0
KHA2 120744Z 19007KT M08/M16 A3024 RMK A01 T10841162  RH  053%=      5-min Rain = 0
KHA2 120745Z 19007KT M08/M16 A3024 RMK A01 T10841162  RH  053%=      5-min Rain = 0
KHA2 120746Z 19007KT M08/M16 A3024 RMK A01 T10831161  RH  053%=      5-min Rain = 0
KHA2 120747Z 19007KT M08/M16 A3024 RMK A01 T10831161  RH  053%=      5-min Rain = 0
KHA2 120748Z 19006KT M08/M16 A3024 RMK A01 T10821160  RH  054%=      5-min Rain = 0
KHA2 120749Z 19006KT M08/M16 A3024 RMK A01 T10811158  RH  054%=      5-min Rain = 0
KHA2 120750Z 18006KT M08/M16 A3024 RMK A01 T10801157  RH  054%=      5-min Rain = 0
KHA2 120751Z 18005KT M08/M16 A3024 RMK A01 T10791157  RH  054%=      5-min Rain = 0
KHA2 120752Z 18006KT M08/M16 A3024 RMK A01 T10791157  RH  054%=      5-min Rain = 0
KHA2 120753Z 18006KT M08/M16 A3024 RMK A01 T10791157  RH  054%=      5-min Rain = 0
KHA2 120754Z 19006KT M08/M16 A3024 RMK A01 T10791157  RH  054%=      5-min Rain = 0
KHA2 120755Z 19006KT M08/M16 A3024 RMK A01 T10801157  RH  054%=      5-min Rain = 0
KHA2 120756Z 19006KT M08/M16 A3024 RMK A01 T10801158  RH  054%=      5-min Rain = 0
KHA2 120757Z 19006KT M08/M16 A3024 RMK A01 T10801158  RH  054%=      5-min Rain = 0
KHA2 120758Z 18006KT M08/M16 A3024 RMK A01 T10801157  RH  054%=      5-min Rain = 0
KHA2 120759Z 18006KT M08/M16 A3024 RMK A01 T10801157  RH  054%=      5-min Rain = 0
KHA2 120800Z 18005KT M08/M16 A3024 RMK A01 T10801157  RH  054%=      5-min Rain = 0
KHA2 120801Z 18005KT M08/M16 A3024 RMK A01 T10811158  RH  054%=      5-min Rain = 0
KHA2 120802Z 19005KT M08/M16 A3024 RMK A01 T10821159  RH  054%=      5-min Rain = 0
KHA2 120803Z 18006KT M08/M16 A3024 RMK A01 T10831159  RH  054%=      5-min Rain = 0
KHA2 120804Z 18006KT M09/M16 A3024 RMK A01 T10851160  RH  054%=      5-min Rain = 0
KHA2 120805Z 18005KT M09/M16 A3024 RMK A01 T10861161  RH  055%=      5-min Rain = 0
KHA2 120806Z 19005KT M09/M16 A3024 RMK A01 T10871161  RH  055%=      5-min Rain = 0
KHA2 120807Z 19006KT M09/M16 A3024 RMK A01 T10881162  RH  055%=      5-min Rain = 0
KHA2 120808Z 19005KT M09/M16 A3024 RMK A01 T10891162  RH  055%=      5-min Rain = 0
KHA2 120809Z 19005KT M09/M16 A3024 RMK A01 T10901162  RH  056%=      5-min Rain = 0
KHA2 120810Z 19005KT M09/M16 A3024 RMK A01 T10901161  RH  056%=      5-min Rain = 0
KHA2 120811Z 19004KT M09/M16 A3024 RMK A01 T10901160  RH  057%=      5-min Rain = 0
KHA2 120812Z 18004KT M09/M16 A3024 RMK A01 T10901160  RH  057%=      5-min Rain = 0
KHA2 120813Z 18004KT M09/M16 A3024 RMK A01 T10901160  RH  057%=      5-min Rain = 0
KHA2 120814Z 18004KT M09/M16 A3024 RMK A01 T10891159  RH  057%=      5-min Rain = 0
KHA2 120815Z 18004KT M09/M16 A3023 RMK A01 T10891159  RH  057%=      5-min Rain = 0
KHA2 120816Z 18004KT M09/M16 A3023 RMK A01 T10891160  RH  057%=      5-min Rain = 0
KHA2 120817Z 19005KT M09/M16 A3023 RMK A01 T10891160  RH  056%=      5-min Rain = 0
KHA2 120818Z 18005KT M09/M16 A3023 RMK A01 T10881160  RH  056%=      5-min Rain = 0
KHA2 120819Z 18005KT M09/M16 A3023 RMK A01 T10881160  RH  056%=      5-min Rain = 0
KHA2 120820Z 18005KT M09/M16 A3023 RMK A01 T10871160  RH  056%=      5-min Rain = 0
KHA2 120821Z 18005KT M09/M16 A3023 RMK A01 T10881161  RH  056%=      5-min Rain = 0
KHA2 120822Z 18005KT M09/M16 A3023 RMK A01 T10891163  RH  055%=      5-min Rain = 0
KHA2 120823Z 18005KT M09/M16 A3023 RMK A01 T10901164  RH  055%=      5-min Rain = 0
KHA2 120824Z 18005KT M09/M16 A3023 RMK A01 T10901163  RH  056%=      5-min Rain = 0
KHA2 120825Z 18005KT M09/M16 A3023 RMK A01 T10911163  RH  056%=      5-min Rain = 0
KHA2 120826Z 18005KT M09/M16 A3023 RMK A01 T10921163  RH  056%=      5-min Rain = 0
KHA2 120827Z 18005KT M09/M16 A3023 RMK A01 T10921162  RH  057%=      5-min Rain = 0
KHA2 120828Z 18005KT M09/M16 A3023 RMK A01 T10921162  RH  057%=      5-min Rain = 0
KHA2 120829Z 18005KT M09/M16 A3023 RMK A01 T10931162  RH  057%=      5-min Rain = 0
KHA2 120830Z 17005KT M09/M16 A3023 RMK A01 T10931162  RH  057%=      5-min Rain = 0
KHA2 120831Z 16005KT M09/M16 A3023 RMK A01 T10931162  RH  057%=      5-min Rain = 0
KHA2 120832Z 17005KT M09/M16 A3023 RMK A01 T10931162  RH  057%=      5-min Rain = 0
KHA2 120833Z 17005KT M09/M16 A3023 RMK A01 T10941163  RH  057%=      5-min Rain = 0
KHA2 120834Z 17005KT M10/M16 A3023 RMK A01 T10951163  RH  058%=      5-min Rain = 0
KHA2 120835Z 18006KT M10/M16 A3023 RMK A01 T10961164  RH  058%=      5-min Rain = 0
KHA2 120836Z 18006KT M10/M16 A3023 RMK A01 T10971164  RH  058%=      5-min Rain = 0
KHA2 120837Z 18006KT M10/M16 A3023 RMK A01 T10971163  RH  058%=      5-min Rain = 0
KHA2 120838Z 18006KT M10/M16 A3023 RMK A01 T10971163  RH  059%=      5-min Rain = 0
KHA2 120839Z 18006KT M10/M16 A3023 RMK A01 T10961162  RH  059%=      5-min Rain = 0
KHA2 120840Z 18006KT M10/M16 A3023 RMK A01 T10951160  RH  059%=      5-min Rain = 0
KHA2 120841Z 19006KT M09/M16 A3023 RMK A01 T10931159  RH  059%=      5-min Rain = 0
KHA2 120842Z 18006KT M09/M16 A3023 RMK A01 T10921159  RH  058%=      5-min Rain = 0
KHA2 120843Z 18005KT M09/M16 A3023 RMK A01 T10911159  RH  058%=      5-min Rain = 0
KHA2 120844Z 18005KT M09/M16 A3023 RMK A01 T10911159  RH  057%=      5-min Rain = 0
KHA2 120845Z 18005KT M09/M16 A3023 RMK A01 T10921161  RH  057%=      5-min Rain = 0
KHA2 120846Z 19005KT M09/M16 A3023 RMK A01 T10921161  RH  057%=      5-min Rain = 0
KHA2 120847Z 19005KT M09/M16 A3023 RMK A01 T10921160  RH  058%=      5-min Rain = 0
KHA2 120848Z 19006KT M09/M16 A3023 RMK A01 T10901159  RH  058%=      5-min Rain = 0
KHA2 120849Z 19006KT M09/M16 A3023 RMK A01 T10901159  RH  057%=      5-min Rain = 0
KHA2 120850Z 20006KT M09/M16 A3023 RMK A01 T10901161  RH  056%=      5-min Rain = 0
KHA2 120851Z 20005KT M09/M16 A3023 RMK A01 T10911162  RH  056%=      5-min Rain = 0
KHA2 120852Z 20005KT M09/M16 A3024 RMK A01 T10921163  RH  057%=      5-min Rain = 0
KHA2 120853Z 20006KT M09/M16 A3024 RMK A01 T10931162  RH  057%=      5-min Rain = 0
KHA2 120854Z 20006KT M09/M16 A3024 RMK A01 T10931161  RH  058%=      5-min Rain = 0
KHA2 120855Z 20006KT M09/M16 A3024 RMK A01 T10921160  RH  058%=      5-min Rain = 0
KHA2 120856Z 20006KT M09/M16 A3024 RMK A01 T10921161  RH  057%=      5-min Rain = 0
KHA2 120857Z 20006KT M09/M16 A3024 RMK A01 T10941164  RH  057%=      5-min Rain = 0
KHA2 120858Z 20006KT M10/M17 A3024 RMK A01 T10961167  RH  056%=      5-min Rain = 0
KHA2 120859Z 19007KT M10/M17 A3024 RMK A01 T10971168  RH  056%=      5-min Rain = 0
KHA2 120900Z 19007KT M10/M17 A3024 RMK A01 T10971166  RH  057%=      5-min Rain = 0
KHA2 120901Z 19007KT M10/M17 A3023 RMK A01 T10971165  RH  057%=      5-min Rain = 0
KHA2 120902Z 19006KT M10/M17 A3023 RMK A01 T10971165  RH  058%=      5-min Rain = 0
KHA2 120903Z 19006KT M10/M16 A3023 RMK A01 T10971164  RH  058%=      5-min Rain = 0
KHA2 120904Z 19006KT M10/M16 A3024 RMK A01 T10971164  RH  058%=      5-min Rain = 0
KHA2 120905Z 19006KT M10/M16 A3024 RMK A01 T10971164  RH  058%=      5-min Rain = 0
KHA2 120906Z 19006KT M10/M16 A3024 RMK A01 T10971164  RH  058%=      5-min Rain = 0
KHA2 120907Z 19006KT M10/M16 A3024 RMK A01 T10971163  RH  058%=      5-min Rain = 0
KHA2 120908Z 19006KT M10/M16 A3024 RMK A01 T10961162  RH  058%=      5-min Rain = 0
KHA2 120909Z 19006KT M10/M16 A3024 RMK A01 T10951163  RH  058%=      5-min Rain = 0
KHA2 120910Z 18006KT M10/M16 A3024 RMK A01 T10961164  RH  058%=      5-min Rain = 0
KHA2 120911Z 18006KT M10/M17 A3024 RMK A01 T10971165  RH  057%=      5-min Rain = 0
KHA2 120912Z 18006KT M10/M17 A3024 RMK A01 T10981165  RH  058%=      5-min Rain = 0
KHA2 120913Z 19006KT M10/M16 A3024 RMK A01 T10971164  RH  058%=      5-min Rain = 0
KHA2 120914Z 19006KT M10/M16 A3024 RMK A01 T10971163  RH  058%=      5-min Rain = 0
KHA2 120915Z 20007KT M10/M16 A3024 RMK A01 T10961162  RH  058%=      5-min Rain = 0
KHA2 120916Z 19007KT M10/M16 A3024 RMK A01 T10951163  RH  058%=      5-min Rain = 0
KHA2 120917Z 19008KT M10/M16 A3024 RMK A01 T10951164  RH  057%=      5-min Rain = 0
KHA2 120918Z 19008KT M10/M17 A3024 RMK A01 T10961166  RH  057%=      5-min Rain = 0
KHA2 120919Z 19007KT M10/M17 A3024 RMK A01 T10971167  RH  057%=      5-min Rain = 0
KHA2 120920Z 19007KT M10/M17 A3024 RMK A01 T10991168  RH  057%=      5-min Rain = 0
KHA2 120921Z 20007KT M10/M17 A3024 RMK A01 T11001169  RH  057%=      5-min Rain = 0
KHA2 120922Z 19007KT M10/M17 A3024 RMK A01 T11001169  RH  057%=      5-min Rain = 0
KHA2 120923Z 19007KT M10/M17 A3024 RMK A01 T11001167  RH  058%=      5-min Rain = 0
KHA2 120924Z 20007KT M10/M17 A3024 RMK A01 T10981165  RH  058%=      5-min Rain = 0
KHA2 120925Z 20007KT M10/M17 A3024 RMK A01 T10981165  RH  058%=      5-min Rain = 0
KHA2 120926Z 20007KT M10/M17 A3024 RMK A01 T10991167  RH  057%=      5-min Rain = 0
KHA2 120927Z 20006KT M10/M17 A3024 RMK A01 T11011171  RH  057%=      5-min Rain = 0
KHA2 120928Z 19007KT M10/M17 A3024 RMK A01 T11011171  RH  057%=      5-min Rain = 0
KHA2 120929Z 20006KT M10/M17 A3024 RMK A01 T11021170  RH  057%=      5-min Rain = 0
KHA2 120930Z 20007KT M10/M17 A3024 RMK A01 T11021169  RH  058%=      5-min Rain = 0
KHA2 120931Z 20007KT M10/M17 A3024 RMK A01 T11011168  RH  058%=      5-min Rain = 0
KHA2 120932Z 20008KT M10/M17 A3024 RMK A01 T11011168  RH  058%=      5-min Rain = 0
KHA2 120933Z 19008KT M10/M17 A3024 RMK A01 T11011167  RH  058%=      5-min Rain = 0
KHA2 120934Z 19008KT M10/M17 A3024 RMK A01 T11011168  RH  058%=      5-min Rain = 0
KHA2 120935Z 19008KT M10/M17 A3024 RMK A01 T11021169  RH  058%=      5-min Rain = 0
KHA2 120936Z 20008KT M10/M17 A3024 RMK A01 T11021169  RH  058%=      5-min Rain = 0
KHA2 120937Z 20008KT M10/M17 A3024 RMK A01 T11031169  RH  058%=      5-min Rain = 0
KHA2 120938Z 19008KT M11/M17 A3024 RMK A01 T11051171  RH  058%=      5-min Rain = 0
KHA2 120939Z 19008KT M11/M17 A3024 RMK A01 T11051170  RH  059%=      5-min Rain = 0
KHA2 120940Z 20008KT M10/M17 A3024 RMK A01 T11041169  RH  059%=      5-min Rain = 0
KHA2 120941Z 20009KT M10/M17 A3024 RMK A01 T11041167  RH  060%=      5-min Rain = 0
KHA2 120942Z 20009KT M10/M17 A3024 RMK A01 T11031166  RH  060%=      5-min Rain = 0
KHA2 120943Z 20009KT M10/M17 A3024 RMK A01 T11021166  RH  059%=      5-min Rain = 0
KHA2 120944Z 20009KT M10/M17 A3024 RMK A01 T11011166  RH  059%=      5-min Rain = 0
KHA2 120945Z 20009KT M10/M16 A3024 RMK A01 T11001164  RH  059%=      5-min Rain = 0
KHA2 120946Z 19009KT M10/M16 A3024 RMK A01 T10991164  RH  059%=      5-min Rain = 0
KHA2 120947Z 19009KT M10/M16 A3024 RMK A01 T10991163  RH  059%=      5-min Rain = 0
KHA2 120948Z 19008KT M10/M16 A3024 RMK A01 T10981162  RH  060%=      5-min Rain = 0
KHA2 120949Z 19008KT M10/M16 A3024 RMK A01 T10971161  RH  060%=      5-min Rain = 0
KHA2 120950Z 19008KT M10/M16 A3024 RMK A01 T10981160  RH  060%=      5-min Rain = 0
KHA2 120951Z 20008KT M10/M16 A3024 RMK A01 T10991161  RH  060%=      5-min Rain = 0
KHA2 120952Z 19008KT M10/M16 A3024 RMK A01 T10991162  RH  060%=      5-min Rain = 0
KHA2 120953Z 19009KT M10/M16 A3024 RMK A01 T10991162  RH  060%=      5-min Rain = 0
KHA2 120954Z 19009KT M10/M16 A3024 RMK A01 T11001162  RH  061%=      5-min Rain = 0
KHA2 120955Z 19009KT M10/M16 A3024 RMK A01 T11001161  RH  061%=      5-min Rain = 0
KHA2 120956Z 20009KT M10/M16 A3024 RMK A01 T11001161  RH  061%=      5-min Rain = 0
KHA2 120957Z 20008KT M10/M16 A3024 RMK A01 T10991160  RH  061%=      5-min Rain = 0
KHA2 120958Z 20008KT M10/M16 A3024 RMK A01 T10981158  RH  061%=      5-min Rain = 0
KHA2 120959Z 21007KT M10/M16 A3024 RMK A01 T10961156  RH  062%=      5-min Rain = 0
KHA2 121000Z 21008KT M09/M15 A3024 RMK A01 T10941154  RH  062%=      5-min Rain = 0
KHA2 121001Z 22008KT M09/M15 A3024 RMK A01 T10921154  RH  061%=      5-min Rain = 0
KHA2 121002Z 22006KT M09/M16 A3024 RMK A01 T10921156  RH  060%=      5-min Rain = 0
KHA2 121003Z 22007KT M10/M16 A3024 RMK A01 T10961163  RH  058%=      5-min Rain = 0
KHA2 121004Z 22008KT M10/M17 A3024 RMK A01 T10981166  RH  058%=      5-min Rain = 0
KHA2 121005Z 22008KT M10/M17 A3024 RMK A01 T10991167  RH  058%=      5-min Rain = 0
KHA2 121006Z 22008KT M10/M17 A3024 RMK A01 T11001166  RH  058%=      5-min Rain = 0
KHA2 121007Z 22009KT M10/M17 A3024 RMK A01 T11001166  RH  059%=      5-min Rain = 0
KHA2 121008Z 22009KT M10/M16 A3024 RMK A01 T10991164  RH  059%=      5-min Rain = 0
KHA2 121009Z 22010KT M10/M16 A3024 RMK A01 T10981163  RH  059%=      5-min Rain = 0
KHA2 121010Z 22009KT M10/M16 A3024 RMK A01 T10981164  RH  059%=      5-min Rain = 0
KHA2 121011Z 22010KT M10/M16 A3024 RMK A01 T10981164  RH  058%=      5-min Rain = 0
KHA2 121012Z 22010KT M10/M17 A3024 RMK A01 T10981165  RH  058%=      5-min Rain = 0
KHA2 121013Z 21010KT M10/M17 A3024 RMK A01 T10981165  RH  058%=      5-min Rain = 0
KHA2 121014Z 21010KT M10/M17 A3024 RMK A01 T10991165  RH  058%=      5-min Rain = 0
KHA2 121015Z 21009KT M10/M16 A3024 RMK A01 T10991164  RH  059%=      5-min Rain = 0
KHA2 121016Z 21010KT M10/M16 A3024 RMK A01 T10971161  RH  060%=      5-min Rain = 0
KHA2 121017Z 21010KT M09/M16 A3024 RMK A01 T10941157  RH  060%=      5-min Rain = 0
KHA2 121018Z 21009KT M09/M15 A3024 RMK A01 T10921154  RH  060%=      5-min Rain = 0
KHA2 121019Z 21009KT M09/M15 A3024 RMK A01 T10891152  RH  060%=      5-min Rain = 0
KHA2 121020Z 21009KT M09/M15 A3024 RMK A01 T10871150  RH  060%=      5-min Rain = 0
KHA2 121021Z 21009KT M09/M15 A3024 RMK A01 T10851149  RH  060%=      5-min Rain = 0
KHA2 121022Z 21009KT M08/M15 A3024 RMK A01 T10841150  RH  059%=      5-min Rain = 0
KHA2 121023Z 21010KT M08/M15 A3024 RMK A01 T10841150  RH  059%=      5-min Rain = 0
KHA2 121024Z 21010KT M08/M15 A3024 RMK A01 T10841151  RH  058%=      5-min Rain = 0
KHA2 121025Z 21010KT M08/M15 A3024 RMK A01 T10831150  RH  058%=      5-min Rain = 0
KHA2 121026Z 21009KT M08/M15 A3024 RMK A01 T10821150  RH  058%=      5-min Rain = 0
KHA2 121027Z 21009KT M08/M15 A3024 RMK A01 T10811149  RH  058%=      5-min Rain = 0
KHA2 121028Z 21009KT M08/M15 A3024 RMK A01 T10811150  RH  058%=      5-min Rain = 0
KHA2 121029Z 21009KT M08/M15 A3024 RMK A01 T10801150  RH  057%=      5-min Rain = 0
KHA2 121030Z 21009KT M08/M15 A3024 RMK A01 T10811151  RH  057%=      5-min Rain = 0
KHA2 121031Z 21009KT M08/M15 A3024 RMK A01 T10811151  RH  057%=      5-min Rain = 0
KHA2 121032Z 21009KT M08/M15 A3024 RMK A01 T10821151  RH  057%=      5-min Rain = 0
KHA2 121033Z 21010KT M08/M15 A3024 RMK A01 T10811152  RH  057%=      5-min Rain = 0
KHA2 121034Z 21011KT M08/M15 A3024 RMK A01 T10821153  RH  057%=      5-min Rain = 0
KHA2 121035Z 21011KT M08/M15 A3024 RMK A01 T10821153  RH  057%=      5-min Rain = 0
KHA2 121036Z 21011KT M08/M15 A3023 RMK A01 T10821153  RH  057%=      5-min Rain = 0
KHA2 121037Z 20011KT M08/M15 A3023 RMK A01 T10831154  RH  057%=      5-min Rain = 0
KHA2 121038Z 20010KT M08/M15 A3023 RMK A01 T10831154  RH  057%=      5-min Rain = 0
KHA2 121039Z 20010KT M08/M15 A3023 RMK A01 T10841154  RH  057%=      5-min Rain = 0
KHA2 121040Z 21010KT M08/M16 A3023 RMK A01 T10841155  RH  057%=      5-min Rain = 0
KHA2 121041Z 20010KT M08/M16 A3023 RMK A01 T10841155  RH  057%=      5-min Rain = 0
KHA2 121042Z 20010KT M08/M15 A3023 RMK A01 T10841154  RH  057%=      5-min Rain = 0
KHA2 121043Z 21010KT M08/M15 A3023 RMK A01 T10841154  RH  057%=      5-min Rain = 0
KHA2 121044Z 21010KT M08/M15 A3023 RMK A01 T10831153  RH  057%=      5-min Rain = 0
KHA2 121045Z 21009KT M08/M15 A3023 RMK A01 T10831153  RH  057%=      5-min Rain = 0
KHA2 121046Z 21010KT M08/M15 A3023 RMK A01 T10821153  RH  057%=      5-min Rain = 0
KHA2 121047Z 21009KT M08/M15 A3023 RMK A01 T10821153  RH  057%=      5-min Rain = 0
KHA2 121048Z 21009KT M08/M15 A3023 RMK A01 T10811152  RH  057%=      5-min Rain = 0
KHA2 121049Z 21009KT M08/M15 A3023 RMK A01 T10811152  RH  056%=      5-min Rain = 0
KHA2 121050Z 21009KT M08/M15 A3024 RMK A01 T10811152  RH  056%=      5-min Rain = 0
KHA2 121051Z 21009KT M08/M15 A3024 RMK A01 T10811152  RH  056%=      5-min Rain = 0
KHA2 121052Z 21009KT M08/M15 A3024 RMK A01 T10811153  RH  056%=      5-min Rain = 0
KHA2 121053Z 22010KT M08/M15 A3024 RMK A01 T10811154  RH  056%=      5-min Rain = 0
KHA2 121054Z 22010KT M08/M16 A3024 RMK A01 T10831156  RH  056%=      5-min Rain = 0
KHA2 121055Z 22011KT M09/M16 A3024 RMK A01 T10851157  RH  056%=      5-min Rain = 0
KHA2 121056Z 22011KT M09/M16 A3024 RMK A01 T10851158  RH  056%=      5-min Rain = 0
KHA2 121057Z 22011KT M09/M16 A3024 RMK A01 T10851157  RH  056%=      5-min Rain = 0
KHA2 121058Z 22011KT M09/M16 A3024 RMK A01 T10851156  RH  056%=      5-min Rain = 0
KHA2 121059Z 22011KT M08/M16 A3024 RMK A01 T10841156  RH  056%=      5-min Rain = 0
KHA2 121100Z 22010KT M08/M15 A3024 RMK A01 T10831154  RH  056%=      5-min Rain = 0
KHA2 121101Z 22010KT M08/M15 A3024 RMK A01 T10821154  RH  056%=      5-min Rain = 0
KHA2 121102Z 22011KT M08/M15 A3024 RMK A01 T10821154  RH  056%=      5-min Rain = 0
KHA2 121103Z 22010KT M08/M15 A3024 RMK A01 T10811154  RH  056%=      5-min Rain = 0
KHA2 121104Z 22010KT M08/M15 A3024 RMK A01 T10811154  RH  056%=      5-min Rain = 0
KHA2 121105Z 22010KT M08/M15 A3024 RMK A01 T10811154  RH  056%=      5-min Rain = 0
KHA2 121106Z 22010KT M08/M15 A3024 RMK A01 T10811154  RH  056%=      5-min Rain = 0
KHA2 121107Z 22010KT M08/M15 A3024 RMK A01 T10811154  RH  056%=      5-min Rain = 0
KHA2 121108Z 22010KT M08/M15 A3024 RMK A01 T10811154  RH  056%=      5-min Rain = 0
KHA2 121109Z 22010KT M08/M15 A3024 RMK A01 T10801153  RH  056%=      5-min Rain = 0
KHA2 121110Z 22010KT M08/M15 A3024 RMK A01 T10801153  RH  056%=      5-min Rain = 0
KHA2 121111Z 22010KT M08/M15 A3024 RMK A01 T10791153  RH  056%=      5-min Rain = 0
KHA2 121112Z 22010KT M08/M15 A3024 RMK A01 T10791152  RH  056%=      5-min Rain = 0
KHA2 121113Z 22010KT M08/M15 A3024 RMK A01 T10791152  RH  056%=      5-min Rain = 0
KHA2 121114Z 22009KT M08/M15 A3024 RMK A01 T10781152  RH  055%=      5-min Rain = 0
KHA2 121115Z 22010KT M08/M15 A3024 RMK A01 T10781152  RH  056%=      5-min Rain = 0
KHA2 121116Z 22009KT M08/M15 A3024 RMK A01 T10781152  RH  056%=      5-min Rain = 0
KHA2 121117Z 22009KT M08/M15 A3024 RMK A01 T10781152  RH  055%=      5-min Rain = 0
KHA2 121118Z 21009KT M08/M15 A3024 RMK A01 T10781152  RH  055%=      5-min Rain = 0
KHA2 121119Z 21009KT M08/M15 A3024 RMK A01 T10781152  RH  055%=      5-min Rain = 0
KHA2 121120Z 21008KT M08/M15 A3024 RMK A01 T10791152  RH  055%=      5-min Rain = 0
KHA2 121121Z 21008KT M08/M15 A3024 RMK A01 T10791153  RH  055%=      5-min Rain = 0
KHA2 121122Z 21008KT M08/M15 A3024 RMK A01 T10801153  RH  056%=      5-min Rain = 0
KHA2 121123Z 21007KT M08/M15 A3024 RMK A01 T10801152  RH  056%=      5-min Rain = 0
KHA2 121124Z 21007KT M08/M15 A3024 RMK A01 T10801152  RH  056%=      5-min Rain = 0
KHA2 121125Z 21007KT M08/M15 A3024 RMK A01 T10801152  RH  056%=      5-min Rain = 0
KHA2 121126Z 21007KT M08/M15 A3024 RMK A01 T10811153  RH  056%=      5-min Rain = 0
KHA2 121127Z 21007KT M08/M15 A3024 RMK A01 T10811152  RH  056%=      5-min Rain = 0
KHA2 121128Z 21008KT M08/M15 A3024 RMK A01 T10821153  RH  056%=      5-min Rain = 0
KHA2 121129Z 20008KT M08/M15 A3024 RMK A01 T10821153  RH  057%=      5-min Rain = 0
KHA2 121130Z 20008KT M08/M15 A3024 RMK A01 T10821153  RH  057%=      5-min Rain = 0
KHA2 121131Z 20008KT M08/M15 A3024 RMK A01 T10821154  RH  057%=      5-min Rain = 0
KHA2 121132Z 20008KT M08/M16 A3024 RMK A01 T10841155  RH  056%=      5-min Rain = 0
KHA2 121133Z 20009KT M09/M16 A3024 RMK A01 T10851155  RH  057%=      5-min Rain = 0
KHA2 121134Z 20009KT M09/M16 A3024 RMK A01 T10851156  RH  057%=      5-min Rain = 0
KHA2 121135Z 20008KT M09/M16 A3024 RMK A01 T10861155  RH  057%=      5-min Rain = 0
KHA2 121136Z 20008KT M09/M15 A3024 RMK A01 T10861154  RH  058%=      5-min Rain = 0
KHA2 121137Z 19007KT M09/M15 A3024 RMK A01 T10861154  RH  058%=      5-min Rain = 0
KHA2 121138Z 18007KT M09/M15 A3024 RMK A01 T10871153  RH  059%=      5-min Rain = 0
KHA2 121139Z 18008KT M09/M15 A3024 RMK A01 T10881153  RH  060%=      5-min Rain = 0
KHA2 121140Z 18008KT M09/M15 A3024 RMK A01 T10901154  RH  060%=      5-min Rain = 0
KHA2 121141Z 18007KT M09/M16 A3024 RMK A01 T10921155  RH  060%=      5-min Rain = 0
KHA2 121142Z 17007KT M10/M16 A3024 RMK A01 T10951157  RH  060%=      5-min Rain = 0
KHA2 121143Z 18008KT M10/M16 A3024 RMK A01 T10981160  RH  061%=      5-min Rain = 0
KHA2 121144Z 18008KT M10/M16 A3024 RMK A01 T11011161  RH  062%=      5-min Rain = 0
KHA2 121145Z 18008KT M10/M16 A3024 RMK A01 T11021160  RH  063%=      5-min Rain = 0
KHA2 121146Z 18008KT M10/M16 A3024 RMK A01 T11031159  RH  063%=      5-min Rain = 0
KHA2 121147Z 17008KT M10/M16 A3024 RMK A01 T11031158  RH  064%=      5-min Rain = 0
KHA2 121148Z 18007KT M10/M16 A3024 RMK A01 T11041159  RH  064%=      5-min Rain = 0
KHA2 121149Z 18007KT M11/M16 A3024 RMK A01 T11051159  RH  064%=      5-min Rain = 0
KHA2 121150Z 17007KT M11/M16 A3024 RMK A01 T11061159  RH  065%=      5-min Rain = 0
KHA2 121151Z 17007KT M11/M16 A3024 RMK A01 T11061159  RH  065%=      5-min Rain = 0
KHA2 121152Z 17006KT M11/M16 A3024 RMK A01 T11071158  RH  066%=      5-min Rain = 0
KHA2 121153Z 17006KT M11/M16 A3024 RMK A01 T11071158  RH  066%=      5-min Rain = 0
KHA2 121154Z 16006KT M11/M16 A3024 RMK A01 T11071158  RH  066%=      5-min Rain = 0
KHA2 121155Z 16005KT M11/M16 A3024 RMK A01 T11071158  RH  066%=      5-min Rain = 0
KHA2 121156Z 16005KT M11/M16 A3024 RMK A01 T11081158  RH  066%=      5-min Rain = 0
KHA2 121157Z 16005KT M11/M16 A3024 RMK A01 T11071158  RH  066%=      5-min Rain = 0
KHA2 121158Z 16005KT M11/M16 A3024 RMK A01 T11061158  RH  066%=      5-min Rain = 0
KHA2 121159Z 16005KT M11/M16 A3024 RMK A01 T11051158  RH  065%=      5-min Rain = 0
KHA2 121200Z 15005KT M10/M16 A3024 RMK A01 T11041158  RH  065%=      5-min Rain = 0
KHA2 121201Z 15004KT M10/M16 A3024 RMK A01 T11041158  RH  064%=      5-min Rain = 0
KHA2 121202Z 15004KT M10/M16 A3024 RMK A01 T11041159  RH  064%=      5-min Rain = 0
KHA2 121203Z 15004KT M10/M16 A3025 RMK A01 T11041159  RH  064%=      5-min Rain = 0
KHA2 121204Z 16003KT M10/M16 A3025 RMK A01 T11041158  RH  064%=      5-min Rain = 0
KHA2 121205Z 17003KT M10/M16 A3025 RMK A01 T11041159  RH  064%=      5-min Rain = 0
KHA2 121206Z 17003KT M10/M16 A3025 RMK A01 T11041159  RH  064%=      5-min Rain = 0
KHA2 121207Z 18002KT M10/M16 A3025 RMK A01 T11041159  RH  064%=      5-min Rain = 0
KHA2 121208Z 19002KT M10/M16 A3025 RMK A01 T11041159  RH  064%=      5-min Rain = 0
KHA2 121209Z 20003KT M10/M16 A3025 RMK A01 T11041159  RH  064%=      5-min Rain = 0
KHA2 121210Z 21003KT M10/M16 A3025 RMK A01 T11031158  RH  064%=      5-min Rain = 0
KHA2 121211Z 20002KT M10/M16 A3025 RMK A01 T11021158  RH  064%=      5-min Rain = 0
KHA2 121212Z 21002KT M10/M16 A3025 RMK A01 T11021158  RH  064%=      5-min Rain = 0
KHA2 121213Z 21003KT M10/M16 A3025 RMK A01 T11011157  RH  063%=      5-min Rain = 0
KHA2 121214Z 20003KT M10/M16 A3025 RMK A01 T11001157  RH  063%=      5-min Rain = 0
KHA2 121215Z 19003KT M10/M16 A3025 RMK A01 T10991158  RH  062%=      5-min Rain = 0
KHA2 121216Z 18004KT M10/M16 A3025 RMK A01 T10991158  RH  062%=      5-min Rain = 0
KHA2 121217Z 18004KT M10/M16 A3025 RMK A01 T10991157  RH  062%=      5-min Rain = 0
KHA2 121218Z 18004KT M10/M16 A3025 RMK A01 T10981156  RH  063%=      5-min Rain = 0
KHA2 121219Z 17004KT M10/M16 A3025 RMK A01 T10981156  RH  063%=      5-min Rain = 0
KHA2 121220Z 17003KT M10/M16 A3025 RMK A01 T10981156  RH  063%=      5-min Rain = 0
KHA2 121221Z 19004KT M10/M16 A3026 RMK A01 T10991157  RH  063%=      5-min Rain = 0
KHA2 121222Z 18004KT M10/M16 A3026 RMK A01 T11001157  RH  063%=      5-min Rain = 0
KHA2 121223Z 17005KT M10/M16 A3026 RMK A01 T11011158  RH  063%=      5-min Rain = 0
KHA2 121224Z 17005KT M10/M16 A3026 RMK A01 T11021159  RH  063%=      5-min Rain = 0
KHA2 121225Z 18005KT M10/M16 A3026 RMK A01 T11031158  RH  064%=      5-min Rain = 0
KHA2 121226Z 18005KT M10/M16 A3026 RMK A01 T11031158  RH  064%=      5-min Rain = 0
KHA2 121227Z 18005KT M10/M16 A3026 RMK A01 T11031158  RH  064%=      5-min Rain = 0
KHA2 121228Z 18004KT M10/M16 A3026 RMK A01 T11031158  RH  064%=      5-min Rain = 0
KHA2 121229Z 19004KT M10/M16 A3026 RMK A01 T11041159  RH  064%=      5-min Rain = 0
KHA2 121230Z 19004KT M11/M16 A3026 RMK A01 T11051159  RH  064%=      5-min Rain = 0
KHA2 121231Z 20005KT M11/M16 A3026 RMK A01 T11051159  RH  065%=      5-min Rain = 0
KHA2 121232Z 20005KT M11/M16 A3026 RMK A01 T11051158  RH  065%=      5-min Rain = 0
KHA2 121233Z 20004KT M10/M16 A3026 RMK A01 T11031157  RH  065%=      5-min Rain = 0
KHA2 121234Z 20004KT M10/M16 A3026 RMK A01 T11041157  RH  065%=      5-min Rain = 0
KHA2 121235Z 20004KT M10/M16 A3026 RMK A01 T11041157  RH  065%=      5-min Rain = 0
KHA2 121236Z 19004KT M10/M16 A3026 RMK A01 T11031157  RH  065%=      5-min Rain = 0
KHA2 121237Z 19005KT M10/M16 A3026 RMK A01 T11031157  RH  065%=      5-min Rain = 0
KHA2 121238Z 19005KT M10/M16 A3027 RMK A01 T11041157  RH  065%=      5-min Rain = 0
KHA2 121239Z 19005KT M10/M16 A3027 RMK A01 T11041158  RH  064%=      5-min Rain = 0
KHA2 121240Z 19005KT M10/M16 A3027 RMK A01 T11041158  RH  064%=      5-min Rain = 0
KHA2 121241Z 19005KT M10/M16 A3027 RMK A01 T11031157  RH  065%=      5-min Rain = 0
KHA2 121242Z 18005KT M10/M16 A3027 RMK A01 T11031156  RH  065%=      5-min Rain = 0
KHA2 121243Z 17005KT M10/M15 A3027 RMK A01 T11021154  RH  066%=      5-min Rain = 0
KHA2 121244Z 17005KT M10/M15 A3026 RMK A01 T11021152  RH  067%=      5-min Rain = 0
KHA2 121245Z 17005KT M10/M15 A3026 RMK A01 T11011152  RH  067%=      5-min Rain = 0
KHA2 121246Z 17005KT M10/M15 A3026 RMK A01 T11011152  RH  067%=      5-min Rain = 0
KHA2 121247Z 18005KT M10/M15 A3027 RMK A01 T11011152  RH  067%=      5-min Rain = 0
KHA2 121248Z 18005KT M10/M15 A3027 RMK A01 T11011151  RH  067%=      5-min Rain = 0
KHA2 121249Z 18005KT M10/M15 A3027 RMK A01 T11011152  RH  066%=      5-min Rain = 0
KHA2 121250Z 17005KT M10/M15 A3027 RMK A01 T11011152  RH  066%=      5-min Rain = 0
KHA2 121251Z 16005KT M10/M15 A3027 RMK A01 T11001150  RH  067%=      5-min Rain = 0
KHA2 121252Z 16005KT M10/M15 A3027 RMK A01 T11001149  RH  067%=      5-min Rain = 0
KHA2 121253Z 15005KT M10/M15 A3027 RMK A01 T11001149  RH  067%=      5-min Rain = 0
KHA2 121254Z 15006KT M10/M15 A3027 RMK A01 T11011150  RH  067%=      5-min Rain = 0
KHA2 121255Z 15006KT M10/M15 A3027 RMK A01 T11021150  RH  068%=      5-min Rain = 0
KHA2 121256Z 15007KT M10/M15 A3027 RMK A01 T11021149  RH  068%=      5-min Rain = 0
KHA2 121257Z 16007KT M10/M15 A3027 RMK A01 T11011148  RH  068%=      5-min Rain = 0
KHA2 121258Z 16007KT M10/M15 A3027 RMK A01 T11001147  RH  069%=      5-min Rain = 0
KHA2 121259Z 16006KT M10/M15 A3027 RMK A01 T11001146  RH  069%=      5-min Rain = 0
KHA2 121300Z 16006KT M10/M15 A3027 RMK A01 T10991146  RH  069%=      5-min Rain = 0
KHA2 121301Z 15005KT M10/M15 A3027 RMK A01 T10981145  RH  068%=      5-min Rain = 0
KHA2 121302Z 15004KT M10/M15 A3027 RMK A01 T10971145  RH  068%=      5-min Rain = 0
KHA2 121303Z 15004KT M10/M15 A3027 RMK A01 T10971145  RH  068%=      5-min Rain = 0
KHA2 121304Z 14004KT M10/M15 A3027 RMK A01 T10961145  RH  067%=      5-min Rain = 0
KHA2 121305Z 14004KT M10/M15 A3027 RMK A01 T10961146  RH  067%=      5-min Rain = 0
KHA2 121306Z 14004KT M10/M15 A3027 RMK A01 T10951145  RH  067%=      5-min Rain = 0
KHA2 121307Z 14003KT M10/M15 A3027 RMK A01 T10951145  RH  067%=      5-min Rain = 0
KHA2 121308Z 13003KT M09/M15 A3027 RMK A01 T10941145  RH  066%=      5-min Rain = 0
KHA2 121309Z 12003KT M09/M15 A3027 RMK A01 T10931145  RH  066%=      5-min Rain = 0
KHA2 121310Z 11003KT M09/M15 A3027 RMK A01 T10921145  RH  065%=      5-min Rain = 0
KHA2 121311Z 11003KT M09/M15 A3028 RMK A01 T10911146  RH  065%=      5-min Rain = 0
KHA2 121312Z 11004KT M09/M15 A3028 RMK A01 T10901146  RH  064%=      5-min Rain = 0
KHA2 121313Z 11004KT M09/M15 A3028 RMK A01 T10901147  RH  063%=      5-min Rain = 0
KHA2 121314Z 11004KT M09/M15 A3027 RMK A01 T10901147  RH  063%=      5-min Rain = 0
KHA2 121315Z 10005KT M09/M15 A3027 RMK A01 T10901148  RH  063%=      5-min Rain = 0
KHA2 121316Z 11005KT M09/M15 A3027 RMK A01 T10891146  RH  063%=      5-min Rain = 0
KHA2 121317Z 11005KT M09/M15 A3027 RMK A01 T10891146  RH  063%=      5-min Rain = 0
KHA2 121318Z 11006KT M09/M15 A3027 RMK A01 T10881147  RH  062%=      5-min Rain = 0
KHA2 121319Z 12005KT M09/M15 A3027 RMK A01 T10881151  RH  061%=      5-min Rain = 0
KHA2 121320Z 12005KT M09/M15 A3027 RMK A01 T10901154  RH  060%=      5-min Rain = 0
KHA2 121321Z 12006KT M09/M16 A3027 RMK A01 T10921156  RH  059%=      5-min Rain = 0
KHA2 121322Z 12005KT M09/M16 A3027 RMK A01 T10931157  RH  059%=      5-min Rain = 0
KHA2 121323Z 12005KT M09/M16 A3027 RMK A01 T10941158  RH  060%=      5-min Rain = 0
KHA2 121324Z 12005KT M10/M16 A3027 RMK A01 T10951158  RH  060%=      5-min Rain = 0
KHA2 121325Z 12005KT M10/M16 A3027 RMK A01 T10951158  RH  060%=      5-min Rain = 0
KHA2 121326Z 13005KT M10/M16 A3027 RMK A01 T10961158  RH  061%=      5-min Rain = 0
KHA2 121327Z 13005KT M10/M16 A3027 RMK A01 T10971158  RH  061%=      5-min Rain = 0
KHA2 121328Z 13005KT M10/M16 A3027 RMK A01 T10981158  RH  061%=      5-min Rain = 0
KHA2 121329Z 13005KT M10/M16 A3027 RMK A01 T10981158  RH  062%=      5-min Rain = 0
KHA2 121330Z 13005KT M10/M16 A3027 RMK A01 T10991158  RH  062%=      5-min Rain = 0
KHA2 121331Z 12005KT M10/M16 A3027 RMK A01 T10991158  RH  062%=      5-min Rain = 0
KHA2 121332Z 12004KT M10/M16 A3027 RMK A01 T11001158  RH  063%=      5-min Rain = 0
KHA2 121333Z 12004KT M10/M16 A3027 RMK A01 T11001158  RH  063%=      5-min Rain = 0
KHA2 121334Z 13004KT M10/M16 A3027 RMK A01 T11001157  RH  063%=      5-min Rain = 0
KHA2 121335Z 13005KT M10/M16 A3027 RMK A01 T11011157  RH  063%=      5-min Rain = 0
KHA2 121336Z 13004KT M10/M16 A3027 RMK A01 T11011157  RH  063%=      5-min Rain = 0
KHA2 121337Z 13005KT M10/M16 A3027 RMK A01 T11011157  RH  063%=      5-min Rain = 0
KHA2 121338Z 13006KT M10/M16 A3027 RMK A01 T11011157  RH  064%=      5-min Rain = 0
KHA2 121339Z 13006KT M10/M16 A3027 RMK A01 T11011157  RH  064%=      5-min Rain = 0
KHA2 121340Z 13007KT M10/M16 A3027 RMK A01 T11011157  RH  064%=      5-min Rain = 0
KHA2 121341Z 13007KT M10/M16 A3027 RMK A01 T11021156  RH  064%=      5-min Rain = 0
KHA2 121342Z 14007KT M10/M16 A3027 RMK A01 T11011156  RH  065%=      5-min Rain = 0
KHA2 121343Z 14007KT M10/M16 A3027 RMK A01 T11021156  RH  065%=      5-min Rain = 0
KHA2 121344Z 14007KT M10/M16 A3027 RMK A01 T11021156  RH  065%=      5-min Rain = 0
KHA2 121345Z 14007KT M10/M16 A3027 RMK A01 T11021155  RH  065%=      5-min Rain = 0
KHA2 121346Z 14007KT M10/M16 A3027 RMK A01 T11021155  RH  065%=      5-min Rain = 0
KHA2 121347Z 14007KT M10/M16 A3027 RMK A01 T11021155  RH  065%=      5-min Rain = 0
KHA2 121348Z 14007KT M10/M16 A3028 RMK A01 T11021155  RH  065%=      5-min Rain = 0
KHA2 121349Z 14007KT M10/M16 A3028 RMK A01 T11021155  RH  065%=      5-min Rain = 0
KHA2 121350Z 13007KT M10/M15 A3028 RMK A01 T11021154  RH  065%=      5-min Rain = 0
KHA2 121351Z 13007KT M10/M15 A3028 RMK A01 T11011154  RH  065%=      5-min Rain = 0
KHA2 121352Z 13006KT M10/M15 A3028 RMK A01 T11001153  RH  065%=      5-min Rain = 0
KHA2 121353Z 14006KT M10/M15 A3028 RMK A01 T10991153  RH  065%=      5-min Rain = 0
KHA2 121354Z 14006KT M10/M15 A3028 RMK A01 T10981152  RH  065%=      5-min Rain = 0
KHA2 121355Z 14006KT M10/M15 A3028 RMK A01 T10971152  RH  065%=      5-min Rain = 0
KHA2 121356Z 14006KT M10/M15 A3028 RMK A01 T10961151  RH  064%=      5-min Rain = 0
KHA2 121357Z 13006KT M10/M15 A3028 RMK A01 T10951151  RH  064%=      5-min Rain = 0
KHA2 121358Z 13006KT M09/M15 A3028 RMK A01 T10931150  RH  063%=      5-min Rain = 0
KHA2 121359Z 13006KT M09/M15 A3028 RMK A01 T10921150  RH  063%=      5-min Rain = 0
KHA2 121400Z 14006KT M09/M15 A3028 RMK A01 T10901149  RH  062%=      5-min Rain = 0
KHA2 121401Z 14006KT M09/M15 A3028 RMK A01 T10891149  RH  062%=      5-min Rain = 0
KHA2 121402Z 13006KT M09/M15 A3028 RMK A01 T10881149  RH  061%=      5-min Rain = 0
KHA2 121403Z 13006KT M09/M15 A3028 RMK A01 T10871149  RH  061%=      5-min Rain = 0
KHA2 121404Z 13006KT M09/M15 A3028 RMK A01 T10861149  RH  060%=      5-min Rain = 0
KHA2 121405Z 13006KT M09/M15 A3028 RMK A01 T10851149  RH  060%=      5-min Rain = 0
KHA2 121406Z 13006KT M08/M15 A3028 RMK A01 T10841149  RH  059%=      5-min Rain = 0
KHA2 121407Z 13006KT M08/M15 A3028 RMK A01 T10831149  RH  059%=      5-min Rain = 0
KHA2 121408Z 14006KT M08/M15 A3028 RMK A01 T10821150  RH  058%=      5-min Rain = 0
KHA2 121409Z 14005KT M08/M15 A3028 RMK A01 T10811149  RH  058%=      5-min Rain = 0
KHA2 121410Z 13006KT M08/M15 A3028 RMK A01 T10801148  RH  058%=      5-min Rain = 0
KHA2 121411Z 14006KT M08/M15 A3028 RMK A01 T10771147  RH  058%=      5-min Rain = 0
KHA2 121412Z 14006KT M08/M15 A3028 RMK A01 T10761146  RH  057%=      5-min Rain = 0
KHA2 121413Z 14005KT M07/M15 A3028 RMK A01 T10741146  RH  057%=      5-min Rain = 0
KHA2 121414Z 14005KT M07/M15 A3028 RMK A01 T10731146  RH  056%=      5-min Rain = 0
KHA2 121415Z 14006KT M07/M15 A3028 RMK A01 T10721145  RH  056%=      5-min Rain = 0
KHA2 121416Z 14005KT M07/M15 A3028 RMK A01 T10711145  RH  055%=      5-min Rain = 0
KHA2 121417Z 14006KT M07/M15 A3028 RMK A01 T10701145  RH  055%=      5-min Rain = 0
KHA2 121418Z 14006KT M07/M15 A3028 RMK A01 T10691145  RH  055%=      5-min Rain = 0
KHA2 121419Z 14005KT M07/M15 A3028 RMK A01 T10691146  RH  054%=      5-min Rain = 0
KHA2 121420Z 14005KT M07/M15 A3029 RMK A01 T10701146  RH  054%=      5-min Rain = 0
KHA2 121421Z 15006KT M07/M15 A3029 RMK A01 T10701146  RH  055%=      5-min Rain = 0
KHA2 121422Z 15005KT M07/M15 A3029 RMK A01 T10691146  RH  055%=      5-min Rain = 0
KHA2 121423Z 15005KT M07/M15 A3029 RMK A01 T10691145  RH  054%=      5-min Rain = 0
KHA2 121424Z 14006KT M07/M15 A3029 RMK A01 T10671145  RH  054%=      5-min Rain = 0
KHA2 121425Z 14007KT M07/M14 A3029 RMK A01 T10661144  RH  054%=      5-min Rain = 0
KHA2 121426Z 14007KT M07/M14 A3029 RMK A01 T10651144  RH  053%=      5-min Rain = 0
KHA2 121427Z 14006KT M06/M14 A3029 RMK A01 T10641144  RH  053%=      5-min Rain = 0
KHA2 121428Z 14006KT M06/M14 A3029 RMK A01 T10631143  RH  053%=      5-min Rain = 0
KHA2 121429Z 14007KT M06/M14 A3029 RMK A01 T10621143  RH  052%=      5-min Rain = 0
KHA2 121430Z 14005KT M06/M14 A3029 RMK A01 T10621144  RH  052%=      5-min Rain = 0
KHA2 121431Z 15005KT M06/M14 A3029 RMK A01 T10601143  RH  052%=      5-min Rain = 0
KHA2 121432Z 15007KT M06/M14 A303 RMK A01 T10581142  RH  052%=      5-min Rain = 0
KHA2 121433Z 15006KT M06/M14 A303 RMK A01 T10581143  RH  051%=      5-min Rain = 0
KHA2 121434Z 15006KT M06/M14 A303 RMK A01 T10581144  RH  051%=      5-min Rain = 0
KHA2 121435Z 15007KT M06/M14 A303 RMK A01 T10581144  RH  051%=      5-min Rain = 0
KHA2 121436Z 14006KT M06/M14 A303 RMK A01 T10571143  RH  051%=      5-min Rain = 0
KHA2 121437Z 14008KT M06/M14 A303 RMK A01 T10551141  RH  051%=      5-min Rain = 0
KHA2 121438Z 14007KT M06/M14 A303 RMK A01 T10551142  RH  050%=      5-min Rain = 0
KHA2 121439Z 14007KT M06/M14 A303 RMK A01 T10561143  RH  050%=      5-min Rain = 0
KHA2 121440Z 14008KT M06/M14 A303 RMK A01 T10561142  RH  051%=      5-min Rain = 0
KHA2 121441Z 14006KT M06/M14 A303 RMK A01 T10561143  RH  050%=      5-min Rain = 0
KHA2 121442Z 14006KT M06/M14 A303 RMK A01 T10561142  RH  051%=      5-min Rain = 0
KHA2 121443Z 14006KT M06/M14 A303 RMK A01 T10551142  RH  051%=      5-min Rain = 0
KHA2 121444Z 15006KT M06/M14 A303 RMK A01 T10551141  RH  051%=      5-min Rain = 0
KHA2 121445Z 15006KT M05/M14 A303 RMK A01 T10541141  RH  051%=      5-min Rain = 0
KHA2 121446Z 15008KT M05/M14 A303 RMK A01 T10541141  RH  050%=      5-min Rain = 0
KHA2 121447Z 15009KT M05/M14 A303 RMK A01 T10541141  RH  050%=      5-min Rain = 0
KHA2 121448Z 14008KT M05/M14 A303 RMK A01 T10541141  RH  050%=      5-min Rain = 0
KHA2 121449Z 14007KT M05/M14 A3029 RMK A01 T10531141  RH  050%=      5-min Rain = 0
KHA2 121450Z 14008KT M05/M14 A3029 RMK A01 T10531140  RH  050%=      5-min Rain = 0
KHA2 121451Z 13008KT M05/M14 A3029 RMK A01 T10521141  RH  050%=      5-min Rain = 0
KHA2 121452Z 13007KT M05/M14 A3029 RMK A01 T10521140  RH  050%=      5-min Rain = 0
KHA2 121453Z 14009KT M05/M14 A3029 RMK A01 T10511140  RH  050%=      5-min Rain = 0
KHA2 121454Z 14009KT M05/M14 A3029 RMK A01 T10511140  RH  050%=      5-min Rain = 0
KHA2 121455Z 14008KT M05/M14 A3029 RMK A01 T10511141  RH  049%=      5-min Rain = 0
KHA2 121456Z 14009KT M05/M14 A3029 RMK A01 T10511140  RH  050%=      5-min Rain = 0
KHA2 121457Z 13009KT M05/M14 A3029 RMK A01 T10501140  RH  049%=      5-min Rain = 0
KHA2 121458Z 14009KT M05/M14 A3029 RMK A01 T10501140  RH  049%=      5-min Rain = 0
KHA2 121459Z 13008KT M05/M14 A3029 RMK A01 T10501140  RH  049%=      5-min Rain = 0
KHA2 121500Z 13009KT M05/M14 A3029 RMK A01 T10491140  RH  049%=      5-min Rain = 0
KHA2 121501Z 14009KT M05/M14 A303 RMK A01 T10491140  RH  049%=      5-min Rain = 0
KHA2 121502Z 14009KT M05/M14 A303 RMK A01 T10491140  RH  049%=      5-min Rain = 0
KHA2 121503Z 14008KT M05/M14 A303 RMK A01 T10481140  RH  049%=      5-min Rain = 0
KHA2 121504Z 14010KT M05/M14 A303 RMK A01 T10481140  RH  049%=      5-min Rain = 0
KHA2 121505Z 14009KT M05/M14 A303 RMK A01 T10491141  RH  048%=      5-min Rain = 0
KHA2 121506Z 14009KT M05/M14 A303 RMK A01 T10491141  RH  048%=      5-min Rain = 0
KHA2 121507Z 14010KT M05/M14 A303 RMK A01 T10461139  RH  048%=      5-min Rain = 0
KHA2 121508Z 15009KT M04/M14 A303 RMK A01 T10441137  RH  048%=      5-min Rain = 0
KHA2 121509Z 14009KT M04/M14 A303 RMK A01 T10421137  RH  048%=      5-min Rain = 0
KHA2 121510Z 14010KT M04/M14 A303 RMK A01 T10401137  RH  047%=      5-min Rain = 0
KHA2 121511Z 14009KT M04/M14 A303 RMK A01 T10391137  RH  047%=      5-min Rain = 0
KHA2 121512Z 15009KT M04/M14 A303 RMK A01 T10371136  RH  046%=      5-min Rain = 0
KHA2 121513Z 14010KT M04/M14 A303 RMK A01 T10361136  RH  046%=      5-min Rain = 0
KHA2 121514Z 14010KT M04/M14 A303 RMK A01 T10351136  RH  045%=      5-min Rain = 0
KHA2 121515Z 14009KT M03/M14 A303 RMK A01 T10341136  RH  045%=      5-min Rain = 0
KHA2 121516Z 14010KT M03/M14 A3031 RMK A01 T10321136  RH  045%=      5-min Rain = 0
KHA2 121517Z 15008KT M03/M14 A3031 RMK A01 T10321137  RH  044%=      5-min Rain = 0
KHA2 121518Z 15010KT M03/M14 A3031 RMK A01 T10341138  RH  044%=      5-min Rain = 0
KHA2 121519Z 15011KT M04/M14 A3031 RMK A01 T10351138  RH  045%=      5-min Rain = 0
KHA2 121520Z 15010KT M03/M14 A3031 RMK A01 T10341137  RH  045%=      5-min Rain = 0
KHA2 121521Z 16011KT M03/M14 A3031 RMK A01 T10331135  RH  045%=      5-min Rain = 0
KHA2 121522Z 15010KT M03/M13 A3031 RMK A01 T10311134  RH  045%=      5-min Rain = 0
KHA2 121523Z 16008KT M03/M13 A3031 RMK A01 T10281133  RH  044%=      5-min Rain = 0
KHA2 121524Z 16010KT M02/M13 A3031 RMK A01 T10231129  RH  044%=      5-min Rain = 0
KHA2 121525Z 16012KT M02/M13 A3031 RMK A01 T10231132  RH  043%=      5-min Rain = 0
KHA2 121526Z 15013KT M03/M14 A3031 RMK A01 T10251135  RH  043%=      5-min Rain = 0
KHA2 121527Z 15012KT M03/M14 A3031 RMK A01 T10271136  RH  043%=      5-min Rain = 0
KHA2 121528Z 16012KT M03/M14 A3031 RMK A01 T10271135  RH  043%=      5-min Rain = 0
KHA2 121529Z 16011KT M02/M13 A3031 RMK A01 T10241132  RH  043%=      5-min Rain = 0
KHA2 121530Z 16011KT M02/M13 A3031 RMK A01 T10211130  RH  043%=      5-min Rain = 0
KHA2 121531Z 16013KT M02/M13 A3031 RMK A01 T10191131  RH  042%=      5-min Rain = 0
KHA2 121532Z 16011KT M02/M13 A3031 RMK A01 T10201133  RH  042%=      5-min Rain = 0
KHA2 121533Z 16011KT M02/M13 A3031 RMK A01 T10191132  RH  042%=      5-min Rain = 0
KHA2 121534Z 16012KT M02/M13 A3031 RMK A01 T10191132  RH  042%=      5-min Rain = 0
KHA2 121535Z 16013KT M02/M13 A3031 RMK A01 T10191133  RH  041%=      5-min Rain = 0
KHA2 121536Z 15012KT M02/M13 A3031 RMK A01 T10171131  RH  041%=      5-min Rain = 0
KHA2 121537Z 15012KT M02/M13 A3031 RMK A01 T10151130  RH  041%=      5-min Rain = 0
KHA2 121538Z 15011KT M02/M13 A3031 RMK A01 T10151131  RH  041%=      5-min Rain = 0
KHA2 121539Z 16009KT M01/M13 A3031 RMK A01 T10111128  RH  041%=      5-min Rain = 0
KHA2 121540Z 16012KT M01/M13 A3031 RMK A01 T10091128  RH  040%=      5-min Rain = 0
KHA2 121541Z 15011KT M01/M13 A3031 RMK A01 T10111132  RH  039%=      5-min Rain = 0
KHA2 121542Z 15011KT M01/M13 A3031 RMK A01 T10131133  RH  040%=      5-min Rain = 0
KHA2 121543Z 16014KT M02/M13 A3031 RMK A01 T10151134  RH  040%=      5-min Rain = 0
KHA2 121544Z 16012KT M02/M14 A3031 RMK A01 T10161135  RH  040%=      5-min Rain = 0
KHA2 121545Z 15011KT M02/M13 A3031 RMK A01 T10161133  RH  040%=      5-min Rain = 0
KHA2 121546Z 16011KT M02/M13 A3031 RMK A01 T10151131  RH  041%=      5-min Rain = 0
KHA2 121547Z 16011KT M01/M13 A3031 RMK A01 T10121130  RH  040%=      5-min Rain = 0
KHA2 121548Z 16012KT M01/M13 A3031 RMK A01 T10101130  RH  040%=      5-min Rain = 0
KHA2 121549Z 16011KT M01/M13 A3031 RMK A01 T10101132  RH  039%=      5-min Rain = 0
KHA2 121550Z 16012KT M01/M13 A3031 RMK A01 T10121133  RH  039%=      5-min Rain = 0
KHA2 121551Z 16013KT M01/M13 A3031 RMK A01 T10131134  RH  039%=      5-min Rain = 0
KHA2 121552Z 16013KT M01/M13 A3031 RMK A01 T10141134  RH  039%=      5-min Rain = 0
KHA2 121553Z 15013KT M02/M14 A3031 RMK A01 T10151136  RH  039%=      5-min Rain = 0
KHA2 121554Z 15011KT M02/M14 A3031 RMK A01 T10151136  RH  039%=      5-min Rain = 0
KHA2 121555Z 15012KT M01/M14 A3031 RMK A01 T10141135  RH  039%=      5-min Rain = 0
KHA2 121556Z 16012KT M01/M13 A3031 RMK A01 T10121133  RH  039%=      5-min Rain = 0
KHA2 121557Z 17014KT M01/M13 A3031 RMK A01 T10091132  RH  039%=      5-min Rain = 0
KHA2 121558Z 16012G17KT M01/M13 A3031 RMK A01 T10081134  RH  038%=      5-min Rain = 0
KHA2 121559Z 16013KT M01/M13 A3031 RMK A01 T10071134  RH  038%=      5-min Rain = 0
KHA2 121600Z 16013KT M01/M14 A3031 RMK A01 T10071135  RH  037%=      5-min Rain = 0
KHA2 121601Z 15013KT M01/M14 A3032 RMK A01 T10071135  RH  037%=      5-min Rain = 0
KHA2 121602Z 16014KT M01/M13 A3032 RMK A01 T10051134  RH  037%=      5-min Rain = 0
KHA2 121603Z 16012KT M00/M13 A3031 RMK A01 T10031134  RH  037%=      5-min Rain = 0
KHA2 121604Z 16013KT M00/M13 A3031 RMK A01 T10031134  RH  037%=      5-min Rain = 0
KHA2 121605Z 17013KT M00/M14 A3031 RMK A01 T10031135  RH  036%=      5-min Rain = 0
KHA2 121606Z 16012KT M00/M13 A3031 RMK A01 T10031134  RH  036%=      5-min Rain = 0
KHA2 121607Z 15014KT 00/13 A3031 RMK A01 T00-00-133  RH  036%=      5-min Rain = 0
KHA2 121608Z 14012KT M00/M14 A3031 RMK A01 T10031138  RH  035%=      5-min Rain = 0
KHA2 121609Z 16012KT M00/M14 A3031 RMK A01 T10021136  RH  036%=      5-min Rain = 0
KHA2 121610Z 16013KT M00/M14 A3031 RMK A01 T10021136  RH  036%=      5-min Rain = 0
KHA2 121611Z 15012KT M00/M14 A3031 RMK A01 T10021136  RH  036%=      5-min Rain = 0
KHA2 121612Z 17013KT M00/M14 A3031 RMK A01 T10011136  RH  036%=      5-min Rain = 0
KHA2 121613Z 17014KT M00/M14 A3031 RMK A01 T10011136  RH  035%=      5-min Rain = 0
KHA2 121614Z 17012KT 00/14 A3031 RMK A01 T00-00-137  RH  035%=      5-min Rain = 0
KHA2 121615Z 15011KT 00/14 A3031 RMK A01 T00000-136  RH  035%=      5-min Rain = 0
KHA2 121616Z 15011KT 00/M14 A3031 RMK A01 T00011136  RH  035%=      5-min Rain = 0
KHA2 121617Z 15013KT 00/M14 A3031 RMK A01 T00031135  RH  035%=      5-min Rain = 0
KHA2 121618Z 16012KT 00/M13 A3031 RMK A01 T00041134  RH  035%=      5-min Rain = 0
KHA2 121619Z 16013KT 00/M14 A3031 RMK A01 T00041136  RH  034%=      5-min Rain = 0
KHA2 121620Z 17013KT 00/M14 A3031 RMK A01 T00011137  RH  034%=      5-min Rain = 0
KHA2 121621Z 17013KT 00/M14 A3031 RMK A01 T00011136  RH  035%=      5-min Rain = 0
KHA2 121622Z 17014KT 00/M14 A3031 RMK A01 T00021135  RH  035%=      5-min Rain = 0
KHA2 121623Z 16012KT 00/M13 A3031 RMK A01 T00021134  RH  035%=      5-min Rain = 0
KHA2 121624Z 17012KT 00/M13 A3031 RMK A01 T00021134  RH  035%=      5-min Rain = 0
KHA2 121625Z 16013KT 00/M13 A3031 RMK A01 T00021134  RH  035%=      5-min Rain = 0
KHA2 121626Z 16012KT 00/M13 A3031 RMK A01 T00011134  RH  035%=      5-min Rain = 0
KHA2 121627Z 16011KT 00/M13 A3031 RMK A01 T00041131  RH  035%=      5-min Rain = 0
KHA2 121628Z 16012KT 01/M13 A3031 RMK A01 T00051132  RH  035%=      5-min Rain = 0
KHA2 121629Z 15013KT 00/M13 A3031 RMK A01 T00041134  RH  035%=      5-min Rain = 0
KHA2 121630Z 15013KT 00/M13 A3031 RMK A01 T00041134  RH  035%=      5-min Rain = 0
KHA2 121631Z 15013KT 00/M13 A3031 RMK A01 T00031133  RH  035%=      5-min Rain = 0
KHA2 121632Z 15011KT 00/M13 A3031 RMK A01 T00041132  RH  035%=      5-min Rain = 0
KHA2 121633Z 15011KT 01/M13 A3031 RMK A01 T00061130  RH  035%=      5-min Rain = 0
KHA2 121634Z 15012KT 01/M13 A3031 RMK A01 T00081130  RH  035%=      5-min Rain = 0
KHA2 121635Z 17013KT 01/M13 A3031 RMK A01 T00081131  RH  035%=      5-min Rain = 0
KHA2 121636Z 16010KT 01/M13 A3031 RMK A01 T00061132  RH  035%=      5-min Rain = 0
KHA2 121637Z 14014KT 01/M13 A3031 RMK A01 T00071130  RH  035%=      5-min Rain = 0
KHA2 121638Z 14012KT 01/M13 A3031 RMK A01 T00091130  RH  035%=      5-min Rain = 0
KHA2 121639Z 14014KT 01/M13 A3031 RMK A01 T00111130  RH  034%=      5-min Rain = 0
KHA2 121640Z 16010KT 01/M13 A3031 RMK A01 T00101131  RH  034%=      5-min Rain = 0
KHA2 121641Z 15011KT 01/M13 A3031 RMK A01 T00131129  RH  034%=      5-min Rain = 0
KHA2 121642Z 14010KT 01/M13 A303 RMK A01 T00131130  RH  033%=      5-min Rain = 0
KHA2 121643Z 14013KT 01/M13 A303 RMK A01 T00141129  RH  034%=      5-min Rain = 0
KHA2 121644Z 13014KT 01/M13 A303 RMK A01 T00131131  RH  033%=      5-min Rain = 0
KHA2 121645Z 15012KT 01/M13 A303 RMK A01 T00121133  RH  033%=      5-min Rain = 0
KHA2 121646Z 16012KT 01/M13 A303 RMK A01 T00111132  RH  033%=      5-min Rain = 0
KHA2 121647Z 16011KT 01/M13 A303 RMK A01 T00131130  RH  033%=      5-min Rain = 0
KHA2 121648Z 14015KT 02/M13 A303 RMK A01 T00161129  RH  033%=      5-min Rain = 0
KHA2 121649Z 13012KT 02/M13 A303 RMK A01 T00181131  RH  032%=      5-min Rain = 0
KHA2 121650Z 14014KT 02/M13 A303 RMK A01 T00171133  RH  032%=      5-min Rain = 0
KHA2 121651Z 15013KT 02/M14 A303 RMK A01 T00161136  RH  031%=      5-min Rain = 0
KHA2 121652Z 15014KT 02/M14 A303 RMK A01 T00151136  RH  031%=      5-min Rain = 0
KHA2 121653Z 16016KT 01/M14 A303 RMK A01 T00131138  RH  031%=      5-min Rain = 0
KHA2 121654Z 16014KT 01/M14 A303 RMK A01 T00141136  RH  032%=      5-min Rain = 0
KHA2 121655Z 16013G18KT 02/M13 A303 RMK A01 T00161134  RH  032%=      5-min Rain = 0
KHA2 121656Z 15015KT 02/M14 A303 RMK A01 T00171135  RH  031%=      5-min Rain = 0
KHA2 121657Z 15010KT 02/M14 A303 RMK A01 T00151137  RH  031%=      5-min Rain = 0
KHA2 121658Z 14014KT 02/M13 A303 RMK A01 T00191132  RH  032%=      5-min Rain = 0
KHA2 121659Z 14011KT 02/M13 A303 RMK A01 T00201133  RH  031%=      5-min Rain = 0
KHA2 121700Z 14011KT 02/M14 A303 RMK A01 T00171135  RH  031%=      5-min Rain = 0
KHA2 121701Z 15013G18KT 02/M13 A303 RMK A01 T00191134  RH  031%=      5-min Rain = 0
KHA2 121702Z 15013KT 02/M13 A303 RMK A01 T00221132  RH  031%=      5-min Rain = 0
KHA2 121703Z 14016KT 02/M13 A303 RMK A01 T00231134  RH  030%=      5-min Rain = 0
KHA2 121704Z 14015KT 02/M14 A303 RMK A01 T00221136  RH  030%=      5-min Rain = 0
KHA2 121705Z 14014KT 02/M14 A303 RMK A01 T00201138  RH  030%=      5-min Rain = 0
KHA2 121706Z 14013G18KT 02/M14 A303 RMK A01 T00201138  RH  030%=      5-min Rain = 0
KHA2 121707Z 14016KT 02/M14 A303 RMK A01 T00211137  RH  030%=      5-min Rain = 0
KHA2 121708Z 14016KT 02/M14 A303 RMK A01 T00211137  RH  030%=      5-min Rain = 0
KHA2 121709Z 15015KT 02/M14 A303 RMK A01 T00221138  RH  030%=      5-min Rain = 0
KHA2 121710Z 15016KT 02/M14 A303 RMK A01 T00231139  RH  029%=      5-min Rain = 0
KHA2 121711Z 14014KT 02/M14 A303 RMK A01 T00231141  RH  029%=      5-min Rain = 0
KHA2 121712Z 15014KT 03/M14 A303 RMK A01 T00261138  RH  029%=      5-min Rain = 0
KHA2 121713Z 15015KT 03/M14 A303 RMK A01 T00281137  RH  028%=      5-min Rain = 0
KHA2 121714Z 15014KT 03/M14 A303 RMK A01 T00251140  RH  028%=      5-min Rain = 0
KHA2 121715Z 14015G20KT 02/M14 A303 RMK A01 T00231140  RH  029%=      5-min Rain = 0
KHA2 121716Z 15016KT 02/M14 A303 RMK A01 T00231140  RH  029%=      5-min Rain = 0
KHA2 121717Z 14017KT 02/M14 A303 RMK A01 T00241141  RH  028%=      5-min Rain = 0
KHA2 121718Z 15014KT 02/M14 A303 RMK A01 T00231142  RH  028%=      5-min Rain = 0
KHA2 121719Z 16012KT 02/M14 A303 RMK A01 T00241140  RH  029%=      5-min Rain = 0
KHA2 121720Z 15013G18KT 02/M14 A3029 RMK A01 T00241140  RH  029%=      5-min Rain = 0
KHA2 121721Z 14012KT 03/M14 A3029 RMK A01 T00271137  RH  029%=      5-min Rain = 0
KHA2 121722Z 14015KT 03/M14 A3029 RMK A01 T00311138  RH  028%=      5-min Rain = 0
KHA2 121723Z 16017KT 03/M15 A3029 RMK A01 T00291145  RH  027%=      5-min Rain = 0
KHA2 121724Z 15017KT 03/M15 A3029 RMK A01 T00281147  RH  026%=      5-min Rain = 0
KHA2 121725Z 16014KT 03/M15 A3029 RMK A01 T00271147  RH  026%=      5-min Rain = 0
KHA2 121726Z 16015KT 03/M15 A3029 RMK A01 T00251146  RH  027%=      5-min Rain = 0
KHA2 121727Z 15012KT 03/M14 A3029 RMK A01 T00251144  RH  028%=      5-min Rain = 0
KHA2 121728Z 14011KT 03/M14 A3029 RMK A01 T00251141  RH  028%=      5-min Rain = 0
KHA2 121729Z 14011G16KT 03/M14 A3029 RMK A01 T00261138  RH  029%=      5-min Rain = 0
KHA2 121730Z 14012KT 03/M13 A3029 RMK A01 T00321134  RH  028%=      5-min Rain = 0
KHA2 121731Z 14014KT 03/M14 A3029 RMK A01 T00341136  RH  028%=      5-min Rain = 0
KHA2 121732Z 15014KT 03/M14 A3029 RMK A01 T00311141  RH  027%=      5-min Rain = 0
KHA2 121733Z 14011KT 03/M14 A3029 RMK A01 T00271144  RH  027%=      5-min Rain = 0
KHA2 121734Z 13012KT 03/M14 A3029 RMK A01 T00261142  RH  028%=      5-min Rain = 0
KHA2 121735Z 14017KT 03/M14 A3029 RMK A01 T00261141  RH  028%=      5-min Rain = 0
KHA2 121736Z 15014KT 03/M14 A3029 RMK A01 T00261140  RH  028%=      5-min Rain = 0
KHA2 121737Z 15012KT 03/M14 A3029 RMK A01 T00261139  RH  028%=      5-min Rain = 0
KHA2 121738Z 15012KT 03/M14 A3029 RMK A01 T00271137  RH  029%=      5-min Rain = 0
KHA2 121739Z 13013KT 03/M14 A3029 RMK A01 T00281137  RH  028%=      5-min Rain = 0
KHA2 121740Z 16013KT 03/M14 A3029 RMK A01 T00291139  RH  028%=      5-min Rain = 0
KHA2 121741Z 16014KT 03/M14 A3029 RMK A01 T00291139  RH  028%=      5-min Rain = 0
KHA2 121742Z 15012KT 03/M14 A3028 RMK A01 T00301137  RH  028%=      5-min Rain = 0
KHA2 121743Z 15012KT 04/M13 A3028 RMK A01 T00351134  RH  028%=      5-min Rain = 0
KHA2 121744Z 15013KT 04/M14 A3028 RMK A01 T00371136  RH  027%=      5-min Rain = 0
KHA2 121745Z 14012KT 04/M14 A3029 RMK A01 T00381140  RH  026%=      5-min Rain = 0
KHA2 121746Z 15015KT 04/M14 A3029 RMK A01 T00371142  RH  026%=      5-min Rain = 0
KHA2 121747Z 15012KT 03/M15 A3028 RMK A01 T00331146  RH  026%=      5-min Rain = 0
KHA2 121748Z 14014KT 03/M15 A3028 RMK A01 T00321145  RH  026%=      5-min Rain = 0
KHA2 121749Z 15015KT 03/M15 A3028 RMK A01 T00311145  RH  026%=      5-min Rain = 0
KHA2 121750Z 16013KT 03/M15 A3028 RMK A01 T00321145  RH  026%=      5-min Rain = 0
KHA2 121751Z 15014KT 03/M15 A3028 RMK A01 T00341145  RH  026%=      5-min Rain = 0
KHA2 121752Z 14014KT 03/M14 A3028 RMK A01 T00341144  RH  026%=      5-min Rain = 0
KHA2 121753Z 15013KT 03/M14 A3028 RMK A01 T00341143  RH  026%=      5-min Rain = 0
KHA2 121754Z 14014KT 03/M14 A3028 RMK A01 T00341143  RH  026%=      5-min Rain = 0
KHA2 121755Z 15012KT 03/M15 A3028 RMK A01 T00321146  RH  026%=      5-min Rain = 0
KHA2 121756Z 14012KT 03/M15 A3028 RMK A01 T00331145  RH  026%=      5-min Rain = 0
KHA2 121757Z 14014KT 03/M15 A3028 RMK A01 T00341145  RH  026%=      5-min Rain = 0
KHA2 121758Z 16012KT 04/M14 A3028 RMK A01 T00351144  RH  026%=      5-min Rain = 0
KHA2 121759Z 16014KT 04/M14 A3028 RMK A01 T00371142  RH  026%=      5-min Rain = 0
KHA2 121800Z 15014KT 04/M14 A3028 RMK A01 T00371142  RH  026%=      5-min Rain = 0
KHA2 121801Z 14014KT 04/M14 A3028 RMK A01 T00391142  RH  025%=      5-min Rain = 0
KHA2 121802Z 14016KT 04/M15 A3028 RMK A01 T00361145  RH  025%=      5-min Rain = 0
KHA2 121803Z 14015KT 03/M15 A3028 RMK A01 T00341146  RH  025%=      5-min Rain = 0
KHA2 121804Z 14015KT 03/M15 A3028 RMK A01 T00311147  RH  026%=      5-min Rain = 0
KHA2 121805Z 15014KT 03/M15 A3028 RMK A01 T00311146  RH  026%=      5-min Rain = 0
KHA2 121806Z 15013G18KT 03/M14 A3028 RMK A01 T00331144  RH  026%=      5-min Rain = 0
KHA2 121807Z 14014KT 04/M14 A3028 RMK A01 T00361142  RH  026%=      5-min Rain = 0
KHA2 121808Z 14014KT 04/M14 A3027 RMK A01 T00351144  RH  026%=      5-min Rain = 0
KHA2 121809Z 14014KT 03/M14 A3027 RMK A01 T00341144  RH  026%=      5-min Rain = 0
KHA2 121810Z 15011KT 03/M14 A3027 RMK A01 T00331144  RH  026%=      5-min Rain = 0
KHA2 121811Z 15014KT 04/M14 A3027 RMK A01 T00351140  RH  026%=      5-min Rain = 0
KHA2 121812Z 17013KT 04/M14 A3027 RMK A01 T00361140  RH  026%=      5-min Rain = 0
KHA2 121813Z 15011KT 04/M14 A3027 RMK A01 T00351141  RH  026%=      5-min Rain = 0
KHA2 121814Z 14012KT 04/M14 A3027 RMK A01 T00391136  RH  027%=      5-min Rain = 0
KHA2 121815Z 14012KT 04/M14 A3027 RMK A01 T00391139  RH  026%=      5-min Rain = 0
KHA2 121816Z 14015KT 04/M14 A3027 RMK A01 T00381138  RH  026%=      5-min Rain = 0
KHA2 121817Z 14011KT 04/M14 A3027 RMK A01 T00381139  RH  026%=      5-min Rain = 0
KHA2 121818Z 14015KT 04/M14 A3027 RMK A01 T00371140  RH  026%=      5-min Rain = 0
KHA2 121819Z 14011KT 04/M14 A3027 RMK A01 T00371142  RH  026%=      5-min Rain = 0
KHA2 121820Z 14015KT 04/M14 A3027 RMK A01 T00421137  RH  026%=      5-min Rain = 0
KHA2 121821Z 14015KT 05/M14 A3027 RMK A01 T00451140  RH  025%=      5-min Rain = 0
KHA2 121822Z 16014G19KT 04/M15 A3027 RMK A01 T00411145  RH  024%=      5-min Rain = 0
KHA2 121823Z 16013KT 04/M15 A3027 RMK A01 T00381145  RH  025%=      5-min Rain = 0
KHA2 121824Z 17010KT 04/M15 A3026 RMK A01 T00361146  RH  025%=      5-min Rain = 0
KHA2 121825Z 14014G19KT 04/M14 A3026 RMK A01 T00391140  RH  026%=      5-min Rain = 0
KHA2 121826Z 15016G23KT 04/M14 A3026 RMK A01 T00421140  RH  025%=      5-min Rain = 0
KHA2 121827Z 15016KT 04/M14 A3026 RMK A01 T00441141  RH  025%=      5-min Rain = 0
KHA2 121828Z 15015KT 04/M15 A3026 RMK A01 T00411145  RH  024%=      5-min Rain = 0
KHA2 121829Z 15015KT 04/M14 A3026 RMK A01 T00411142  RH  025%=      5-min Rain = 0
KHA2 121830Z 16012KT 04/M14 A3026 RMK A01 T00381144  RH  025%=      5-min Rain = 0
KHA2 121831Z 16012KT 04/M15 A3026 RMK A01 T00371145  RH  025%=      5-min Rain = 0
KHA2 121832Z 15013KT 04/M14 A3026 RMK A01 T00371144  RH  025%=      5-min Rain = 0
KHA2 121833Z 14013KT 04/M14 A3026 RMK A01 T00401141  RH  026%=      5-min Rain = 0
KHA2 121834Z 15015KT 04/M14 A3026 RMK A01 T00421140  RH  025%=      5-min Rain = 0
KHA2 121835Z 15012KT 04/M14 A3026 RMK A01 T00411142  RH  025%=      5-min Rain = 0
KHA2 121836Z 14014KT 04/M14 A3026 RMK A01 T00401142  RH  025%=      5-min Rain = 0
KHA2 121837Z 14014KT 04/M14 A3026 RMK A01 T00401142  RH  025%=      5-min Rain = 0
KHA2 121838Z 13013KT 04/M14 A3026 RMK A01 T00401142  RH  025%=      5-min Rain = 0
KHA2 121839Z 15011KT 04/M14 A3026 RMK A01 T00411140  RH  025%=      5-min Rain = 0
KHA2 121840Z 13013KT 04/M14 A3026 RMK A01 T00431138  RH  025%=      5-min Rain = 0
KHA2 121841Z 14013KT 05/M14 A3026 RMK A01 T00461138  RH  025%=      5-min Rain = 0
KHA2 121842Z 13017KT 04/M14 A3026 RMK A01 T00441140  RH  025%=      5-min Rain = 0
KHA2 121843Z 14015KT 05/M14 A3026 RMK A01 T00451139  RH  025%=      5-min Rain = 0
KHA2 121844Z 15012KT 05/M14 A3026 RMK A01 T00461140  RH  024%=      5-min Rain = 0
KHA2 121845Z 15015KT 05/M14 A3026 RMK A01 T00451143  RH  024%=      5-min Rain = 0
KHA2 121846Z 15012KT 05/M14 A3026 RMK A01 T00461142  RH  024%=      5-min Rain = 0
KHA2 121847Z 14008KT 05/M14 A3026 RMK A01 T00461143  RH  024%=      5-min Rain = 0
KHA2 121848Z 13014KT 05/M14 A3025 RMK A01 T00471141  RH  024%=      5-min Rain = 0
KHA2 121849Z 15013KT 05/M14 A3025 RMK A01 T00501141  RH  024%=      5-min Rain = 0
KHA2 121850Z 15012KT 05/M14 A3025 RMK A01 T00491143  RH  023%=      5-min Rain = 0
KHA2 121851Z 15012KT 05/M14 A3025 RMK A01 T00491142  RH  024%=      5-min Rain = 0
KHA2 121852Z 16012G17KT 05/M14 A3025 RMK A01 T00501142  RH  024%=      5-min Rain = 0
KHA2 121853Z 16013KT 05/M14 A3025 RMK A01 T00511144  RH  023%=      5-min Rain = 0
KHA2 121854Z 14015KT 05/M15 A3025 RMK A01 T00471147  RH  023%=      5-min Rain = 0
KHA2 121855Z 13014KT 05/M14 A3025 RMK A01 T00481144  RH  023%=      5-min Rain = 0
KHA2 121856Z 13015KT 05/M14 A3025 RMK A01 T00481144  RH  023%=      5-min Rain = 0
KHA2 121857Z 15016KT 05/M14 A3025 RMK A01 T00501142  RH  023%=      5-min Rain = 0
KHA2 121858Z 16018KT 05/M14 A3025 RMK A01 T00511142  RH  023%=      5-min Rain = 0
KHA2 121859Z 14015KT 05/M14 A3025 RMK A01 T00491143  RH  023%=      5-min Rain = 0
KHA2 121900Z 14012G17KT 05/M14 A3025 RMK A01 T00481144  RH  023%=      5-min Rain = 0
KHA2 121901Z 14014KT 05/M14 A3025 RMK A01 T00481142  RH  024%=      5-min Rain = 0
KHA2 121902Z 16017KT 05/M14 A3025 RMK A01 T00501140  RH  024%=      5-min Rain = 0
KHA2 121903Z 16014KT 05/M14 A3024 RMK A01 T00511142  RH  023%=      5-min Rain = 0
KHA2 121904Z 15015KT 05/M14 A3024 RMK A01 T00511142  RH  023%=      5-min Rain = 0
KHA2 121905Z 15013G18KT 05/M14 A3024 RMK A01 T00501144  RH  023%=      5-min Rain = 0
KHA2 121906Z 15013KT 05/M14 A3024 RMK A01 T00511142  RH  023%=      5-min Rain = 0
KHA2 121907Z 15017KT 06/M14 A3024 RMK A01 T00551139  RH  023%=      5-min Rain = 0
KHA2 121908Z 14013KT 06/M14 A3024 RMK A01 T00551141  RH  023%=      5-min Rain = 0
KHA2 121909Z 15011KT 05/M14 A3024 RMK A01 T00511143  RH  023%=      5-min Rain = 0
KHA2 121910Z 14015KT 05/M14 A3024 RMK A01 T00481143  RH  024%=      5-min Rain = 0
KHA2 121911Z 15014KT 05/M14 A3023 RMK A01 T00511140  RH  024%=      5-min Rain = 0
KHA2 121912Z 14016KT 05/M14 A3023 RMK A01 T00531140  RH  023%=      5-min Rain = 0
KHA2 121913Z 15015KT 06/M14 A3023 RMK A01 T00551140  RH  023%=      5-min Rain = 0
KHA2 121914Z 15016KT 06/M14 A3023 RMK A01 T00561141  RH  023%=      5-min Rain = 0
KHA2 121915Z 13016KT 05/M14 A3023 RMK A01 T00541143  RH  023%=      5-min Rain = 0
KHA2 121916Z 15015KT 05/M14 A3023 RMK A01 T00531143  RH  023%=      5-min Rain = 0
KHA2 121917Z 16014KT 05/M14 A3023 RMK A01 T00541141  RH  023%=      5-min Rain = 0
KHA2 121918Z 16014KT 06/M14 A3023 RMK A01 T00551141  RH  023%=      5-min Rain = 0
KHA2 121919Z 14014KT 06/M14 A3023 RMK A01 T00591138  RH  023%=      5-min Rain = 0
KHA2 121920Z 15018KT 06/M14 A3023 RMK A01 T00621140  RH  022%=      5-min Rain = 0
KHA2 121921Z 15014KT 06/M15 A3023 RMK A01 T00631146  RH  021%=      5-min Rain = 0
KHA2 121922Z 16013KT 06/M15 A3023 RMK A01 T00621148  RH  021%=      5-min Rain = 0
KHA2 121923Z 14017KT 06/M15 A3023 RMK A01 T00631149  RH  020%=      5-min Rain = 0
KHA2 121924Z 15015KT 06/M15 A3023 RMK A01 T00621151  RH  020%=      5-min Rain = 0
KHA2 121925Z 16016KT 06/M15 A3023 RMK A01 T00611153  RH  020%=      5-min Rain = 0
KHA2 121926Z 16014KT 06/M15 A3023 RMK A01 T00581153  RH  020%=      5-min Rain = 0
KHA2 121927Z 17020KT 06/M15 A3023 RMK A01 T00631149  RH  020%=      5-min Rain = 0
KHA2 121928Z 17017KT 06/M15 A3023 RMK A01 T00611152  RH  020%=      5-min Rain = 0
KHA2 121929Z 16015G21KT 06/M15 A3023 RMK A01 T00601151  RH  020%=      5-min Rain = 0
KHA2 121930Z 16017KT 06/M15 A3023 RMK A01 T00591150  RH  021%=      5-min Rain = 0
KHA2 121931Z 15016KT 06/M15 A3023 RMK A01 T00591150  RH  021%=      5-min Rain = 0
KHA2 121932Z 15012KT 06/M15 A3023 RMK A01 T00581150  RH  021%=      5-min Rain = 0
KHA2 121933Z 16014G19KT 06/M15 A3023 RMK A01 T00601147  RH  021%=      5-min Rain = 0
KHA2 121934Z 15016KT 06/M15 A3023 RMK A01 T00601149  RH  021%=      5-min Rain = 0
KHA2 121935Z 16016KT 06/M15 A3023 RMK A01 T00601151  RH  020%=      5-min Rain = 0
KHA2 121936Z 15016KT 06/M15 A3023 RMK A01 T00621147  RH  021%=      5-min Rain = 0
KHA2 121937Z 15017KT 06/M15 A3022 RMK A01 T00631147  RH  020%=      5-min Rain = 0
KHA2 121938Z 14015KT 06/M15 A3022 RMK A01 T00631147  RH  021%=      5-min Rain = 0
KHA2 121939Z 15015KT 06/M15 A3022 RMK A01 T00621148  RH  021%=      5-min Rain = 0
KHA2 121940Z 14012KT 06/M15 A3022 RMK A01 T00601149  RH  021%=      5-min Rain = 0
KHA2 121941Z 14012KT 06/M15 A3022 RMK A01 T00591148  RH  021%=      5-min Rain = 0
KHA2 121942Z 15019KT 06/M14 A3022 RMK A01 T00631143  RH  021%=      5-min Rain = 0
KHA2 121943Z 15017KT 07/M14 A3022 RMK A01 T00661144  RH  021%=      5-min Rain = 0
KHA2 121944Z 14017KT 07/M15 A3022 RMK A01 T00651145  RH  021%=      5-min Rain = 0
KHA2 121945Z 14014KT 06/M15 A3022 RMK A01 T00631147  RH  021%=      5-min Rain = 0
KHA2 121946Z 14014KT 06/M15 A3022 RMK A01 T00601148  RH  021%=      5-min Rain = 0
KHA2 121947Z 14016KT 06/M15 A3021 RMK A01 T00611145  RH  021%=      5-min Rain = 0
KHA2 121948Z 16014KT 06/M14 A3021 RMK A01 T00631144  RH  021%=      5-min Rain = 0
KHA2 121949Z 15018KT 07/M14 A3021 RMK A01 T00651144  RH  021%=      5-min Rain = 0
KHA2 121950Z 15017KT 06/M15 A3021 RMK A01 T00641146  RH  021%=      5-min Rain = 0
KHA2 121951Z 15014KT 06/M15 A3021 RMK A01 T00611147  RH  021%=      5-min Rain = 0
KHA2 121952Z 16014KT 06/M15 A3021 RMK A01 T00621145  RH  021%=      5-min Rain = 0
KHA2 121953Z 17014KT 06/M14 A3021 RMK A01 T00641144  RH  021%=      5-min Rain = 0
KHA2 121954Z 16016KT 06/M14 A3021 RMK A01 T00641144  RH  021%=      5-min Rain = 0
KHA2 121955Z 14016KT 06/M15 A3021 RMK A01 T00631147  RH  021%=      5-min Rain = 0
KHA2 121956Z 15016KT 07/M15 A3021 RMK A01 T00651146  RH  021%=      5-min Rain = 0
KHA2 121957Z 15015KT 06/M15 A3021 RMK A01 T00641149  RH  020%=      5-min Rain = 0
KHA2 121958Z 15013KT 06/M15 A3021 RMK A01 T00621151  RH  020%=      5-min Rain = 0
KHA2 121959Z 15016KT 06/M15 A3021 RMK A01 T00631149  RH  020%=      5-min Rain = 0
KHA2 122000Z 15014KT 07/M15 A3021 RMK A01 T00651149  RH  020%=      5-min Rain = 0
KHA2 122001Z 15017KT 07/M15 A3021 RMK A01 T00671147  RH  020%=      5-min Rain = 0
KHA2 122002Z 14019KT 07/M15 A3021 RMK A01 T00671149  RH  020%=      5-min Rain = 0
KHA2 122003Z 14015KT 07/M15 A3021 RMK A01 T00651150  RH  020%=      5-min Rain = 0
KHA2 122004Z 15017KT 07/M15 A302 RMK A01 T00681146  RH  020%=      5-min Rain = 0
KHA2 122005Z 14018KT 07/M15 A302 RMK A01 T00721145  RH  020%=      5-min Rain = 0
KHA2 122006Z 14020KT 07/M15 A302 RMK A01 T00741146  RH  019%=      5-min Rain = 0
KHA2 122007Z 15019KT 07/M15 A302 RMK A01 T00721150  RH  019%=      5-min Rain = 0
KHA2 122008Z 15020G26KT 07/M15 A302 RMK A01 T00691152  RH  019%=      5-min Rain = 0
KHA2 122009Z 16018KT 07/M15 A302 RMK A01 T00691151  RH  019%=      5-min Rain = 0
KHA2 122010Z 17019KT 07/M15 A302 RMK A01 T00701151  RH  019%=      5-min Rain = 0
KHA2 122011Z 16019KT 07/M15 A302 RMK A01 T00701152  RH  019%=      5-min Rain = 0
KHA2 122012Z 16017KT 07/M15 A302 RMK A01 T00691153  RH  019%=      5-min Rain = 0
KHA2 122013Z 14016KT 07/M15 A302 RMK A01 T00681152  RH  019%=      5-min Rain = 0
KHA2 122014Z 14022KT 07/M15 A302 RMK A01 T00721148  RH  019%=      5-min Rain = 0
KHA2 122015Z 14020KT 07/M15 A302 RMK A01 T00711151  RH  019%=      5-min Rain = 0
KHA2 122016Z 15017KT 07/M15 A302 RMK A01 T00691153  RH  019%=      5-min Rain = 0
KHA2 122017Z 14016KT 07/M15 A302 RMK A01 T00671152  RH  019%=      5-min Rain = 0
KHA2 122018Z 15016KT 07/M15 A302 RMK A01 T00691150  RH  019%=      5-min Rain = 0
KHA2 122019Z 15016KT 07/M15 A302 RMK A01 T00701152  RH  019%=      5-min Rain = 0
KHA2 122020Z 15020KT 07/M15 A302 RMK A01 T00711153  RH  018%=      5-min Rain = 0
KHA2 122021Z 17018KT 07/M16 A302 RMK A01 T00721155  RH  018%=      5-min Rain = 0
KHA2 122022Z 17016KT 07/M16 A3019 RMK A01 T00741155  RH  018%=      5-min Rain = 0
KHA2 122023Z 14015KT 07/M16 A3019 RMK A01 T00731155  RH  018%=      5-min Rain = 0
KHA2 122024Z 14016KT 07/M15 A3019 RMK A01 T00731154  RH  018%=      5-min Rain = 0
KHA2 122025Z 14018G23KT 07/M16 A3019 RMK A01 T00701155  RH  018%=      5-min Rain = 0
KHA2 122026Z 16019G24KT 07/M15 A3019 RMK A01 T00711152  RH  019%=      5-min Rain = 0
KHA2 122027Z 15016KT 07/M15 A3019 RMK A01 T00711151  RH  019%=      5-min Rain = 0
KHA2 122028Z 15017KT 07/M15 A3019 RMK A01 T00711151  RH  019%=      5-min Rain = 0
KHA2 122029Z 15014KT 07/M15 A3019 RMK A01 T00681153  RH  019%=      5-min Rain = 0
KHA2 122030Z 16014G19KT 07/M15 A3019 RMK A01 T00681152  RH  019%=      5-min Rain = 0
KHA2 122031Z 16019KT 07/M15 A3019 RMK A01 T00701152  RH  019%=      5-min Rain = 0
KHA2 122032Z 16016KT 07/M15 A3019 RMK A01 T00701153  RH  019%=      5-min Rain = 0
KHA2 122033Z 16015KT 07/M15 A3019 RMK A01 T00711151  RH  019%=      5-min Rain = 0
KHA2 122034Z 15017KT 07/M15 A3019 RMK A01 T00731150  RH  019%=      5-min Rain = 0
KHA2 122035Z 16019KT 08/M15 A3019 RMK A01 T00751152  RH  018%=      5-min Rain = 0
KHA2 122036Z 15021KT 07/M16 A3019 RMK A01 T00721155  RH  018%=      5-min Rain = 0
KHA2 122037Z 15017KT 07/M16 A3019 RMK A01 T00691157  RH  018%=      5-min Rain = 0
KHA2 122038Z 14015KT 07/M16 A3019 RMK A01 T00671155  RH  019%=      5-min Rain = 0
KHA2 122039Z 14015KT 07/M15 A3019 RMK A01 T00691152  RH  019%=      5-min Rain = 0
KHA2 122040Z 15019KT 07/M15 A3019 RMK A01 T00741150  RH  019%=      5-min Rain = 0
KHA2 122041Z 15017KT 07/M16 A3019 RMK A01 T00731156  RH  018%=      5-min Rain = 0
KHA2 122042Z 16014KT 07/M16 A3019 RMK A01 T00721157  RH  018%=      5-min Rain = 0
KHA2 122043Z 16015G22KT 07/M16 A3018 RMK A01 T00721155  RH  018%=      5-min Rain = 0
KHA2 122044Z 14018KT 08/M15 A3018 RMK A01 T00751154  RH  018%=      5-min Rain = 0
KHA2 122045Z 14015KT 08/M16 A3018 RMK A01 T00751156  RH  018%=      5-min Rain = 0
KHA2 122046Z 15019KT 08/M16 A3018 RMK A01 T00751155  RH  018%=      5-min Rain = 0
KHA2 122047Z 15020KT 08/M16 A3019 RMK A01 T00761155  RH  018%=      5-min Rain = 0
KHA2 122048Z 14020KT 08/M16 A3019 RMK A01 T00751157  RH  017%=      5-min Rain = 0
KHA2 122049Z 14017KT 07/M16 A3018 RMK A01 T00731158  RH  018%=      5-min Rain = 0
KHA2 122050Z 14019KT 07/M16 A3018 RMK A01 T00741156  RH  018%=      5-min Rain = 0
KHA2 122051Z 14020KT 07/M16 A3018 RMK A01 T00731156  RH  018%=      5-min Rain = 0
KHA2 122052Z 15017KT 07/M16 A3018 RMK A01 T00731157  RH  018%=      5-min Rain = 0
KHA2 122053Z 16016KT 07/M16 A3018 RMK A01 T00711157  RH  018%=      5-min Rain = 0
KHA2 122054Z 15015KT 07/M15 A3018 RMK A01 T00741153  RH  018%=      5-min Rain = 0
KHA2 122055Z 14014KT 08/M15 A3018 RMK A01 T00781150  RH  018%=      5-min Rain = 0
KHA2 122056Z 16016KT 08/M15 A3018 RMK A01 T00791152  RH  018%=      5-min Rain = 0
KHA2 122057Z 15019G25KT 08/M15 A3018 RMK A01 T00781153  RH  018%=      5-min Rain = 0
KHA2 122058Z 14017KT 07/M16 A3018 RMK A01 T00721157  RH  018%=      5-min Rain = 0
KHA2 122059Z 16015KT 07/M16 A3018 RMK A01 T00701156  RH  018%=      5-min Rain = 0
KHA2 122100Z 16018G26KT 07/M16 A3018 RMK A01 T00701156  RH  018%=      5-min Rain = 0
KHA2 122101Z 15018KT 07/M15 A3018 RMK A01 T00731153  RH  018%=      5-min Rain = 0
KHA2 122102Z 15016KT 07/M15 A3018 RMK A01 T00741152  RH  018%=      5-min Rain = 0
KHA2 122103Z 15017G22KT 08/M15 A3018 RMK A01 T00771151  RH  018%=      5-min Rain = 0
KHA2 122104Z 16016KT 08/M15 A3018 RMK A01 T00751154  RH  018%=      5-min Rain = 0
KHA2 122105Z 16014G21KT 08/M15 A3018 RMK A01 T00751153  RH  018%=      5-min Rain = 0
KHA2 122106Z 15022G27KT 08/M15 A3018 RMK A01 T00771152  RH  018%=      5-min Rain = 0
KHA2 122107Z 15021KT 07/M16 A3018 RMK A01 T00741155  RH  018%=      5-min Rain = 0
KHA2 122108Z 14020KT 07/M15 A3018 RMK A01 T00731154  RH  018%=      5-min Rain = 0
KHA2 122109Z 14018KT 07/M15 A3018 RMK A01 T00731154  RH  018%=      5-min Rain = 0
KHA2 122110Z 14014KT 07/M15 A3018 RMK A01 T00741153  RH  018%=      5-min Rain = 0
KHA2 122111Z 15014G20KT 08/M15 A3017 RMK A01 T00751151  RH  018%=      5-min Rain = 0
KHA2 122112Z 14020KT 08/M15 A3017 RMK A01 T00781151  RH  018%=      5-min Rain = 0
KHA2 122113Z 15021KT 08/M15 A3017 RMK A01 T00771153  RH  018%=      5-min Rain = 0
KHA2 122114Z 16016KT 08/M16 A3017 RMK A01 T00751155  RH  018%=      5-min Rain = 0
KHA2 122115Z 16019G24KT 07/M16 A3017 RMK A01 T00741155  RH  018%=      5-min Rain = 0
KHA2 122116Z 15015KT 08/M15 A3017 RMK A01 T00761153  RH  018%=      5-min Rain = 0
KHA2 122117Z 14015G22KT 08/M15 A3017 RMK A01 T00781152  RH  018%=      5-min Rain = 0
KHA2 122118Z 15018KT 08/M15 A3017 RMK A01 T00811151  RH  018%=      5-min Rain = 0
KHA2 122119Z 15015KT 08/M15 A3017 RMK A01 T00791154  RH  017%=      5-min Rain = 0
KHA2 122120Z 14019KT 08/M15 A3017 RMK A01 T00811152  RH  017%=      5-min Rain = 0
KHA2 122121Z 14018KT 08/M15 A3017 RMK A01 T00801154  RH  017%=      5-min Rain = 0
KHA2 122122Z 14020KT 08/M15 A3017 RMK A01 T00811152  RH  017%=      5-min Rain = 0
KHA2 122123Z 14020G25KT 08/M15 A3017 RMK A01 T00811152  RH  017%=      5-min Rain = 0
KHA2 122124Z 15018KT 08/M15 A3017 RMK A01 T00801152  RH  017%=      5-min Rain = 0
KHA2 122125Z 16016KT 08/M15 A3017 RMK A01 T00801153  RH  017%=      5-min Rain = 0
KHA2 122126Z 14016KT 08/M15 A3017 RMK A01 T00791153  RH  018%=      5-min Rain = 0
KHA2 122127Z 14018KT 08/M15 A3017 RMK A01 T00801152  RH  018%=      5-min Rain = 0
KHA2 122128Z 15018KT 08/M15 A3017 RMK A01 T00801153  RH  018%=      5-min Rain = 0
KHA2 122129Z 15018KT 08/M15 A3017 RMK A01 T00811151  RH  018%=      5-min Rain = 0
KHA2 122130Z 16018KT 08/M15 A3017 RMK A01 T00811152  RH  018%=      5-min Rain = 0
KHA2 122131Z 16019KT 08/M15 A3017 RMK A01 T00811150  RH  018%=      5-min Rain = 0
KHA2 122132Z 16016KT 08/M15 A3017 RMK A01 T00801152  RH  018%=      5-min Rain = 0
KHA2 122133Z 15018G23KT 08/M15 A3017 RMK A01 T00801151  RH  018%=      5-min Rain = 0
KHA2 122134Z 14018KT 08/M15 A3017 RMK A01 T00791152  RH  018%=      5-min Rain = 0
KHA2 122135Z 14018KT 08/M15 A3017 RMK A01 T00771154  RH  018%=      5-min Rain = 0
KHA2 122136Z 14018KT 08/M15 A3017 RMK A01 T00761153  RH  018%=      5-min Rain = 0
KHA2 122137Z 15018KT 08/M15 A3017 RMK A01 T00751154  RH  018%=      5-min Rain = 0
KHA2 122138Z 15017KT 07/M15 A3017 RMK A01 T00731154  RH  018%=      5-min Rain = 0
KHA2 122139Z 15018KT 07/M15 A3017 RMK A01 T00741152  RH  018%=      5-min Rain = 0
KHA2 122140Z 15017KT 08/M15 A3017 RMK A01 T00761149  RH  018%=      5-min Rain = 0
KHA2 122141Z 15016KT 08/M15 A3017 RMK A01 T00761150  RH  018%=      5-min Rain = 0
KHA2 122142Z 14021KT 08/M15 A3017 RMK A01 T00781149  RH  018%=      5-min Rain = 0
KHA2 122143Z 15019KT 08/M15 A3017 RMK A01 T00771150  RH  018%=      5-min Rain = 0
KHA2 122144Z 16017KT 08/M15 A3017 RMK A01 T00761151  RH  018%=      5-min Rain = 0
KHA2 122145Z 16020G25KT 08/M15 A3017 RMK A01 T00751151  RH  018%=      5-min Rain = 0
KHA2 122146Z 16020KT 08/M15 A3017 RMK A01 T00751151  RH  018%=      5-min Rain = 0
KHA2 122147Z 15018KT 08/M15 A3017 RMK A01 T00751151  RH  018%=      5-min Rain = 0
KHA2 122148Z 15019KT 07/M15 A3017 RMK A01 T00741151  RH  018%=      5-min Rain = 0
KHA2 122149Z 15017KT 08/M15 A3017 RMK A01 T00761150  RH  018%=      5-min Rain = 0
KHA2 122150Z 15018KT 08/M15 A3017 RMK A01 T00761150  RH  018%=      5-min Rain = 0
KHA2 122151Z 14014KT 08/M15 A3017 RMK A01 T00751151  RH  018%=      5-min Rain = 0
KHA2 122152Z 15018KT 08/M15 A3017 RMK A01 T00751150  RH  018%=      5-min Rain = 0
KHA2 122153Z 15015KT 08/M15 A3017 RMK A01 T00751151  RH  018%=      5-min Rain = 0
KHA2 122154Z 14019G24KT 08/M15 A3017 RMK A01 T00761149  RH  018%=      5-min Rain = 0
KHA2 122155Z 14018KT 08/M15 A3017 RMK A01 T00781148  RH  018%=      5-min Rain = 0
KHA2 122156Z 15019KT 08/M15 A3017 RMK A01 T00771149  RH  018%=      5-min Rain = 0
KHA2 122157Z 14017KT 08/M15 A3017 RMK A01 T00771149  RH  018%=      5-min Rain = 0
KHA2 122158Z 14016G24KT 08/M15 A3017 RMK A01 T00791148  RH  018%=      5-min Rain = 0
KHA2 122159Z 14018G23KT 08/M15 A3017 RMK A01 T00821147  RH  018%=      5-min Rain = 0
KHA2 122200Z 14018KT 08/M15 A3016 RMK A01 T00831149  RH  018%=      5-min Rain = 0
KHA2 122201Z 15015KT 08/M15 A3016 RMK A01 T00801150  RH  018%=      5-min Rain = 0
KHA2 122202Z 16021KT 08/M15 A3016 RMK A01 T00811148  RH  018%=      5-min Rain = 0
KHA2 122203Z 14018KT 08/M15 A3016 RMK A01 T00801151  RH  018%=      5-min Rain = 0
KHA2 122204Z 14018G23KT 08/M15 A3016 RMK A01 T00781151  RH  018%=      5-min Rain = 0
KHA2 122205Z 14018KT 08/M15 A3016 RMK A01 T00801148  RH  018%=      5-min Rain = 0
KHA2 122206Z 14018G25KT 08/M15 A3016 RMK A01 T00811147  RH  018%=      5-min Rain = 0
KHA2 122207Z 15019KT 08/M15 A3016 RMK A01 T00801148  RH  018%=      5-min Rain = 0
KHA2 122208Z 14016KT 08/M15 A3016 RMK A01 T00791149  RH  018%=      5-min Rain = 0
KHA2 122209Z 15017KT 08/M15 A3016 RMK A01 T00791149  RH  018%=      5-min Rain = 0
KHA2 122210Z 14018KT 08/M15 A3016 RMK A01 T00801149  RH  018%=      5-min Rain = 0
KHA2 122211Z 15021KT 08/M15 A3016 RMK A01 T00801148  RH  018%=      5-min Rain = 0
KHA2 122212Z 16019KT 08/M15 A3016 RMK A01 T00801150  RH  018%=      5-min Rain = 0
KHA2 122213Z 15019KT 08/M15 A3016 RMK A01 T00791151  RH  018%=      5-min Rain = 0
KHA2 122214Z 15019KT 08/M15 A3016 RMK A01 T00781152  RH  018%=      5-min Rain = 0
KHA2 122215Z 14019KT 08/M15 A3016 RMK A01 T00771151  RH  018%=      5-min Rain = 0
KHA2 122216Z 15016KT 08/M15 A3016 RMK A01 T00781150  RH  018%=      5-min Rain = 0
KHA2 122217Z 16018KT 08/M15 A3016 RMK A01 T00801148  RH  018%=      5-min Rain = 0
KHA2 122218Z 15018KT 08/M15 A3016 RMK A01 T00791150  RH  018%=      5-min Rain = 0
KHA2 122219Z 15016G22KT 08/M15 A3016 RMK A01 T00791149  RH  018%=      5-min Rain = 0
KHA2 122220Z 16021KT 08/M15 A3016 RMK A01 T00791148  RH  018%=      5-min Rain = 0
KHA2 122221Z 16019KT 08/M15 A3016 RMK A01 T00771150  RH  018%=      5-min Rain = 0
KHA2 122222Z 15017KT 08/M15 A3016 RMK A01 T00751151  RH  018%=      5-min Rain = 0
KHA2 122223Z 14020G25KT 08/M15 A3016 RMK A01 T00751150  RH  019%=      5-min Rain = 0
KHA2 122224Z 14019G24KT 08/M15 A3016 RMK A01 T00751149  RH  019%=      5-min Rain = 0
KHA2 122225Z 14017KT 08/M15 A3016 RMK A01 T00751149  RH  019%=      5-min Rain = 0
KHA2 122226Z 14015KT 08/M15 A3016 RMK A01 T00771148  RH  019%=      5-min Rain = 0
KHA2 122227Z 14016G21KT 08/M15 A3016 RMK A01 T00771148  RH  018%=      5-min Rain = 0
KHA2 122228Z 14018G23KT 08/M15 A3016 RMK A01 T00771148  RH  018%=      5-min Rain = 0
KHA2 122229Z 14020KT 08/M15 A3016 RMK A01 T00781148  RH  018%=      5-min Rain = 0
KHA2 122230Z 14018KT 08/M15 A3016 RMK A01 T00761148  RH  019%=      5-min Rain = 0
KHA2 122231Z 15018KT 08/M15 A3016 RMK A01 T00751149  RH  019%=      5-min Rain = 0
KHA2 122232Z 14019KT 08/M15 A3016 RMK A01 T00751149  RH  019%=      5-min Rain = 0
KHA2 122233Z 14017KT 08/M15 A3016 RMK A01 T00751148  RH  019%=      5-min Rain = 0
KHA2 122234Z 15019KT 08/M15 A3016 RMK A01 T00751148  RH  019%=      5-min Rain = 0
KHA2 122235Z 14021KT 08/M15 A3016 RMK A01 T00751148  RH  019%=      5-min Rain = 0
KHA2 122236Z 15017KT 08/M15 A3016 RMK A01 T00751147  RH  019%=      5-min Rain = 0
KHA2 122237Z 15017KT 08/M15 A3016 RMK A01 T00761146  RH  019%=      5-min Rain = 0
KHA2 122238Z 15017KT 08/M15 A3016 RMK A01 T00771146  RH  019%=      5-min Rain = 0
KHA2 122239Z 15016KT 08/M15 A3016 RMK A01 T00771146  RH  019%=      5-min Rain = 0
KHA2 122240Z 15015KT 08/M15 A3016 RMK A01 T00761147  RH  019%=      5-min Rain = 0
KHA2 122241Z 14018KT 08/M15 A3016 RMK A01 T00771146  RH  019%=      5-min Rain = 0
KHA2 122242Z 14016G21KT 08/M15 A3016 RMK A01 T00771146  RH  019%=      5-min Rain = 0
KHA2 122243Z 13018KT 08/M15 A3016 RMK A01 T00781145  RH  019%=      5-min Rain = 0
KHA2 122244Z 13018G23KT 08/M15 A3016 RMK A01 T00761147  RH  019%=      5-min Rain = 0
KHA2 122245Z 14019KT 08/M15 A3016 RMK A01 T00761147  RH  019%=      5-min Rain = 0
KHA2 122246Z 15018KT 08/M15 A3016 RMK A01 T00761146  RH  019%=      5-min Rain = 0
KHA2 122247Z 16021KT 08/M14 A3016 RMK A01 T00771144  RH  019%=      5-min Rain = 0
KHA2 122248Z 15017KT 08/M14 A3016 RMK A01 T00771144  RH  019%=      5-min Rain = 0
KHA2 122249Z 15019KT 08/M15 A3016 RMK A01 T00771145  RH  019%=      5-min Rain = 0
KHA2 122250Z 14016KT 08/M14 A3016 RMK A01 T00781144  RH  019%=      5-min Rain = 0
KHA2 122251Z 14017KT 08/M14 A3016 RMK A01 T00791143  RH  019%=      5-min Rain = 0
KHA2 122252Z 15019KT 08/M14 A3016 RMK A01 T00791144  RH  019%=      5-min Rain = 0
KHA2 122253Z 14019KT 08/M15 A3016 RMK A01 T00781145  RH  019%=      5-min Rain = 0
KHA2 122254Z 15016KT 08/M15 A3016 RMK A01 T00761146  RH  019%=      5-min Rain = 0
KHA2 122255Z 15018KT 08/M15 A3016 RMK A01 T00761145  RH  019%=      5-min Rain = 0
KHA2 122256Z 14018G23KT 08/M15 A3016 RMK A01 T00751145  RH  019%=      5-min Rain = 0
KHA2 122257Z 15020KT 08/M14 A3016 RMK A01 T00751143  RH  019%=      5-min Rain = 0
KHA2 122258Z 15017KT 07/M14 A3016 RMK A01 T00741144  RH  020%=      5-min Rain = 0
KHA2 122259Z 15017G22KT 07/M14 A3016 RMK A01 T00731144  RH  020%=      5-min Rain = 0
KHA2 122300Z 14014KT 07/M14 A3016 RMK A01 T00731144  RH  020%=      5-min Rain = 0
KHA2 122301Z 14014KT 07/M14 A3016 RMK A01 T00731144  RH  020%=      5-min Rain = 0
KHA2 122302Z 14017G22KT 07/M14 A3015 RMK A01 T00731143  RH  020%=      5-min Rain = 0
KHA2 122303Z 14020G25KT 07/M14 A3015 RMK A01 T00721144  RH  020%=      5-min Rain = 0
KHA2 122304Z 14022KT 07/M14 A3015 RMK A01 T00721144  RH  020%=      5-min Rain = 0
KHA2 122305Z 14018KT 07/M14 A3015 RMK A01 T00711144  RH  020%=      5-min Rain = 0
KHA2 122306Z 14016KT 07/M14 A3016 RMK A01 T00711144  RH  020%=      5-min Rain = 0
KHA2 122307Z 15017KT 07/M14 A3016 RMK A01 T00711143  RH  020%=      5-min Rain = 0
KHA2 122308Z 15018KT 07/M14 A3016 RMK A01 T00711142  RH  020%=      5-min Rain = 0
KHA2 122309Z 14013G18KT 07/M14 A3016 RMK A01 T00711142  RH  020%=      5-min Rain = 0
KHA2 122310Z 15016KT 07/M14 A3016 RMK A01 T00721141  RH  020%=      5-min Rain = 0
KHA2 122311Z 14019KT 07/M14 A3016 RMK A01 T00721142  RH  020%=      5-min Rain = 0
KHA2 122312Z 15018KT 07/M14 A3016 RMK A01 T00711142  RH  020%=      5-min Rain = 0
KHA2 122313Z 15016KT 07/M14 A3016 RMK A01 T00691142  RH  021%=      5-min Rain = 0
KHA2 122314Z 15016KT 07/M14 A3016 RMK A01 T00681142  RH  021%=      5-min Rain = 0
KHA2 122315Z 15016KT 07/M14 A3016 RMK A01 T00671141  RH  021%=      5-min Rain = 0
KHA2 122316Z 14015KT 07/M14 A3016 RMK A01 T00671141  RH  021%=      5-min Rain = 0
KHA2 122317Z 14015KT 07/M14 A3016 RMK A01 T00671142  RH  021%=      5-min Rain = 0
KHA2 122318Z 14014KT 07/M14 A3016 RMK A01 T00671141  RH  021%=      5-min Rain = 0
KHA2 122319Z 14015KT 07/M14 A3016 RMK A01 T00671141  RH  021%=      5-min Rain = 0
KHA2 122320Z 14014KT 07/M14 A3016 RMK A01 T00671141  RH  021%=      5-min Rain = 0
KHA2 122321Z 14018KT 07/M14 A3016 RMK A01 T00661141  RH  021%=      5-min Rain = 0
KHA2 122322Z 14018KT 07/M14 A3016 RMK A01 T00651143  RH  021%=      5-min Rain = 0
KHA2 122323Z 14017KT 06/M14 A3016 RMK A01 T00641143  RH  021%=      5-min Rain = 0
KHA2 122324Z 14015KT 06/M14 A3016 RMK A01 T00641143  RH  021%=      5-min Rain = 0
KHA2 122325Z 14015KT 06/M14 A3016 RMK A01 T00631143  RH  021%=      5-min Rain = 0
KHA2 122326Z 14015G20KT 06/M14 A3016 RMK A01 T00631143  RH  021%=      5-min Rain = 0
KHA2 122327Z 14019KT 06/M14 A3016 RMK A01 T00621143  RH  021%=      5-min Rain = 0
KHA2 122328Z 14017KT 06/M14 A3016 RMK A01 T00611142  RH  022%=      5-min Rain = 0
KHA2 122329Z 15016KT 06/M14 A3016 RMK A01 T00601143  RH  022%=      5-min Rain = 0
KHA2 122330Z 15016KT 06/M14 A3016 RMK A01 T00591143  RH  022%=      5-min Rain = 0
KHA2 122331Z 14019KT 06/M14 A3016 RMK A01 T00581143  RH  022%=      5-min Rain = 0
KHA2 122332Z 14018KT 06/M14 A3016 RMK A01 T00581143  RH  022%=      5-min Rain = 0
KHA2 122333Z 15016KT 06/M14 A3016 RMK A01 T00581142  RH  022%=      5-min Rain = 0
KHA2 122334Z 14015KT 06/M14 A3016 RMK A01 T00571143  RH  022%=      5-min Rain = 0
KHA2 122335Z 15015KT 06/M14 A3016 RMK A01 T00571142  RH  022%=      5-min Rain = 0
KHA2 122336Z 15014KT 06/M14 A3016 RMK A01 T00571143  RH  022%=      5-min Rain = 0
KHA2 122337Z 15014KT 06/M14 A3016 RMK A01 T00571142  RH  022%=      5-min Rain = 0
KHA2 122338Z 14016KT 06/M14 A3016 RMK A01 T00571142  RH  022%=      5-min Rain = 0
KHA2 122339Z 14015KT 06/M14 A3016 RMK A01 T00571142  RH  022%=      5-min Rain = 0
KHA2 122340Z 14015KT 06/M14 A3016 RMK A01 T00571141  RH  022%=      5-min Rain = 0
KHA2 122341Z 14017KT 06/M14 A3016 RMK A01 T00571142  RH  022%=      5-min Rain = 0
KHA2 122342Z 14018KT 06/M14 A3016 RMK A01 T00571142  RH  022%=      5-min Rain = 0
KHA2 122343Z 14015KT 06/M14 A3016 RMK A01 T00581142  RH  022%=      5-min Rain = 0
KHA2 122344Z 13019KT 06/M14 A3016 RMK A01 T00571142  RH  022%=      5-min Rain = 0
KHA2 122345Z 13018KT 06/M14 A3016 RMK A01 T00571142  RH  022%=      5-min Rain = 0
KHA2 122346Z 13017KT 06/M14 A3016 RMK A01 T00561142  RH  023%=      5-min Rain = 0
KHA2 122347Z 13016KT 05/M14 A3016 RMK A01 T00541143  RH  023%=      5-min Rain = 0
KHA2 122348Z 13016KT 05/M14 A3016 RMK A01 T00531142  RH  023%=      5-min Rain = 0
KHA2 122349Z 13018KT 05/M14 A3016 RMK A01 T00531142  RH  023%=      5-min Rain = 0
KHA2 122350Z 13018KT 05/M14 A3017 RMK A01 T00521142  RH  023%=      5-min Rain = 0
KHA2 122351Z 13016KT 05/M14 A3017 RMK A01 T00521142  RH  023%=      5-min Rain = 0
KHA2 122352Z 13012KT 05/M14 A3017 RMK A01 T00511142  RH  023%=      5-min Rain = 0
KHA2 122353Z 12013KT 05/M14 A3016 RMK A01 T00511142  RH  023%=      5-min Rain = 0
KHA2 122354Z 13014KT 05/M14 A3017 RMK A01 T00491142  RH  023%=      5-min Rain = 0
KHA2 122355Z 13014KT 05/M14 A3017 RMK A01 T00481143  RH  024%=      5-min Rain = 0
KHA2 122356Z 13014KT 05/M14 A3017 RMK A01 T00481142  RH  024%=      5-min Rain = 0
KHA2 122357Z 13011KT 05/M14 A3017 RMK A01 T00481142  RH  024%=      5-min Rain = 0
KHA2 122358Z 13013KT 05/M14 A3017 RMK A01 T00491142  RH  024%=      5-min Rain = 0
KHA2 122359Z 13014KT 05/M14 A3017 RMK A01 T00491142  RH  024%=      5-min Rain = 0
KHA2 130000Z 13016KT 05/M14 A3017 RMK A01 T00491141  RH  024%=      5-min Rain = 0
KHA2 130001Z 13017KT 05/M14 A3017 RMK A01 T00481141  RH  024%=      5-min Rain = 0
KHA2 130002Z 13015KT 05/M14 A3017 RMK A01 T00471141  RH  024%=      5-min Rain = 0
KHA2 130003Z 13014KT 05/M14 A3017 RMK A01 T00461141  RH  024%=      5-min Rain = 0
KHA2 130004Z 13015KT 05/M14 A3017 RMK A01 T00451141  RH  024%=      5-min Rain = 0
KHA2 130005Z 13020KT 05/M14 A3017 RMK A01 T00451141  RH  025%=      5-min Rain = 0
KHA2 130006Z 13017KT 05/M14 A3017 RMK A01 T00451140  RH  025%=      5-min Rain = 0
KHA2 130007Z 13017KT 05/M14 A3017 RMK A01 T00451140  RH  025%=      5-min Rain = 0
KHA2 130008Z 13014KT 04/M14 A3017 RMK A01 T00441141  RH  025%=      5-min Rain = 0
KHA2 130009Z 13016KT 04/M14 A3017 RMK A01 T00431141  RH  025%=      5-min Rain = 0
KHA2 130010Z 13015G20KT 04/M14 A3018 RMK A01 T00421141  RH  025%=      5-min Rain = 0
KHA2 130011Z 13015KT 04/M14 A3018 RMK A01 T00421140  RH  025%=      5-min Rain = 0
KHA2 130012Z 14014KT 04/M14 A3018 RMK A01 T00421140  RH  025%=      5-min Rain = 0
KHA2 130013Z 14015KT 04/M14 A3018 RMK A01 T00411140  RH  025%=      5-min Rain = 0
KHA2 130014Z 14013KT 04/M14 A3018 RMK A01 T00411140  RH  025%=      5-min Rain = 0
KHA2 130015Z 13015KT 04/M14 A3018 RMK A01 T00411140  RH  025%=      5-min Rain = 0
KHA2 130016Z 14016KT 04/M14 A3018 RMK A01 T00401140  RH  026%=      5-min Rain = 0
KHA2 130017Z 14014KT 04/M14 A3018 RMK A01 T00401140  RH  026%=      5-min Rain = 0
KHA2 130018Z 14016KT 04/M14 A3018 RMK A01 T00391140  RH  026%=      5-min Rain = 0
KHA2 130019Z 13016KT 04/M14 A3018 RMK A01 T00391140  RH  026%=      5-min Rain = 0
KHA2 130020Z 13017KT 04/M14 A3018 RMK A01 T00381140  RH  026%=      5-min Rain = 0
KHA2 130021Z 13016KT 04/M14 A3018 RMK A01 T00381140  RH  026%=      5-min Rain = 0
KHA2 130022Z 14014KT 04/M14 A3018 RMK A01 T00371140  RH  026%=      5-min Rain = 0
KHA2 130023Z 14014KT 04/M14 A3018 RMK A01 T00361140  RH  026%=      5-min Rain = 0
KHA2 130024Z 14014KT 04/M14 A3018 RMK A01 T00351140  RH  027%=      5-min Rain = 0
KHA2 130025Z 13014KT 04/M14 A3018 RMK A01 T00351140  RH  027%=      5-min Rain = 0
KHA2 130026Z 14014KT 03/M14 A3018 RMK A01 T00341140  RH  027%=      5-min Rain = 0
KHA2 130027Z 13011KT 03/M14 A3019 RMK A01 T00341139  RH  027%=      5-min Rain = 0
KHA2 130028Z 13012KT 03/M14 A3018 RMK A01 T00331139  RH  027%=      5-min Rain = 0
KHA2 130029Z 13011KT 03/M14 A3019 RMK A01 T00321140  RH  027%=      5-min Rain = 0
KHA2 130030Z 13011KT 03/M14 A3019 RMK A01 T00321140  RH  027%=      5-min Rain = 0
KHA2 130031Z 13012KT 03/M14 A3019 RMK A01 T00311140  RH  027%=      5-min Rain = 0
KHA2 130032Z 13013KT 03/M14 A3018 RMK A01 T00311140  RH  027%=      5-min Rain = 0
KHA2 130033Z 13014KT 03/M14 A3018 RMK A01 T00311139  RH  027%=      5-min Rain = 0
KHA2 130034Z 13014KT 03/M14 A3018 RMK A01 T00311139  RH  027%=      5-min Rain = 0
KHA2 130035Z 13012KT 03/M14 A3018 RMK A01 T00311139  RH  027%=      5-min Rain = 0
KHA2 130036Z 13010KT 03/M14 A3018 RMK A01 T00291140  RH  028%=      5-min Rain = 0
KHA2 130037Z 13011KT 03/M14 A3018 RMK A01 T00291140  RH  028%=      5-min Rain = 0
KHA2 130038Z 13012KT 03/M14 A3018 RMK A01 T00281140  RH  028%=      5-min Rain = 0
KHA2 130039Z 13012KT 03/M14 A3018 RMK A01 T00281139  RH  028%=      5-min Rain = 0
KHA2 130040Z 12013KT 03/M14 A3018 RMK A01 T00281139  RH  028%=      5-min Rain = 0
KHA2 130041Z 12013KT 03/M14 A3018 RMK A01 T00281139  RH  028%=      5-min Rain = 0
KHA2 130042Z 12013KT 03/M14 A3018 RMK A01 T00271139  RH  028%=      5-min Rain = 0
KHA2 130043Z 12012KT 03/M14 A3018 RMK A01 T00271139  RH  028%=      5-min Rain = 0
KHA2 130044Z 12012KT 03/M14 A3018 RMK A01 T00271139  RH  028%=      5-min Rain = 0
KHA2 130045Z 12013KT 03/M14 A3019 RMK A01 T00261139  RH  028%=      5-min Rain = 0
KHA2 130046Z 12013KT 03/M14 A3019 RMK A01 T00261138  RH  029%=      5-min Rain = 0
KHA2 130047Z 12013KT 03/M14 A3019 RMK A01 T00261138  RH  029%=      5-min Rain = 0
KHA2 130048Z 12011KT 03/M14 A3019 RMK A01 T00251139  RH  029%=      5-min Rain = 0
KHA2 130049Z 12011KT 03/M14 A3019 RMK A01 T00251139  RH  029%=      5-min Rain = 0
KHA2 130050Z 12011KT 02/M14 A3019 RMK A01 T00231139  RH  029%=      5-min Rain = 0
KHA2 130051Z 12011KT 02/M14 A3019 RMK A01 T00231139  RH  029%=      5-min Rain = 0
KHA2 130052Z 12011KT 02/M14 A3019 RMK A01 T00231138  RH  029%=      5-min Rain = 0
KHA2 130053Z 13011KT 02/M14 A3019 RMK A01 T00231138  RH  029%=      5-min Rain = 0
KHA2 130054Z 12012KT 02/M14 A3019 RMK A01 T00221139  RH  029%=      5-min Rain = 0
KHA2 130055Z 13012KT 02/M14 A3019 RMK A01 T00221138  RH  029%=      5-min Rain = 0
KHA2 130056Z 12011KT 02/M14 A3019 RMK A01 T00211139  RH  029%=      5-min Rain = 0
KHA2 130057Z 13011KT 02/M14 A3019 RMK A01 T00211139  RH  030%=      5-min Rain = 0
KHA2 130058Z 13012KT 02/M14 A3019 RMK A01 T00201138  RH  030%=      5-min Rain = 0
KHA2 130059Z 13012KT 02/M14 A3019 RMK A01 T00201138  RH  030%=      5-min Rain = 0
KHA2 130100Z 13012KT 02/M14 A3019 RMK A01 T00201138  RH  030%=      5-min Rain = 0
KHA2 130101Z 13011KT 02/M14 A3019 RMK A01 T00201137  RH  030%=      5-min Rain = 0
KHA2 130102Z 13011KT 02/M14 A302 RMK A01 T00191138  RH  030%=      5-min Rain = 0
KHA2 130103Z 13010KT 02/M14 A302 RMK A01 T00191138  RH  030%=      5-min Rain = 0
KHA2 130104Z 13011KT 02/M14 A302 RMK A01 T00181138  RH  030%=      5-min Rain = 0
KHA2 130105Z 13011KT 02/M14 A302 RMK A01 T00181137  RH  031%=      5-min Rain = 0
KHA2 130106Z 13010KT 02/M14 A302 RMK A01 T00181137  RH  031%=      5-min Rain = 0
KHA2 130107Z 13011KT 02/M14 A302 RMK A01 T00171137  RH  031%=      5-min Rain = 0
KHA2 130108Z 13010KT 02/M14 A302 RMK A01 T00171137  RH  031%=      5-min Rain = 0
KHA2 130109Z 13011KT 02/M14 A302 RMK A01 T00171137  RH  031%=      5-min Rain = 0
KHA2 130110Z 13011KT 02/M14 A302 RMK A01 T00171136  RH  031%=      5-min Rain = 0
KHA2 130111Z 13011KT 02/M14 A302 RMK A01 T00171136  RH  031%=      5-min Rain = 0
KHA2 130112Z 13012KT 02/M14 A3019 RMK A01 T00161137  RH  031%=      5-min Rain = 0
KHA2 130113Z 14012KT 02/M14 A3019 RMK A01 T00161137  RH  031%=      5-min Rain = 0
KHA2 130114Z 14012KT 02/M14 A3019 RMK A01 T00161136  RH  031%=      5-min Rain = 0
KHA2 130115Z 14012KT 02/M14 A3019 RMK A01 T00161136  RH  031%=      5-min Rain = 0
KHA2 130116Z 14011KT 02/M14 A3019 RMK A01 T00151136  RH  031%=      5-min Rain = 0
KHA2 130117Z 14011KT 02/M14 A3019 RMK A01 T00151137  RH  031%=      5-min Rain = 0
KHA2 130118Z 14012KT 02/M14 A302 RMK A01 T00151136  RH  032%=      5-min Rain = 0
KHA2 130119Z 14012KT 01/M14 A302 RMK A01 T00141136  RH  032%=      5-min Rain = 0
KHA2 130120Z 14012KT 01/M14 A302 RMK A01 T00141136  RH  032%=      5-min Rain = 0
KHA2 130121Z 14013KT 01/M14 A302 RMK A01 T00141135  RH  032%=      5-min Rain = 0
KHA2 130122Z 14012KT 02/M14 A302 RMK A01 T00151135  RH  032%=      5-min Rain = 0
KHA2 130123Z 13012KT 02/M14 A302 RMK A01 T00151135  RH  032%=      5-min Rain = 0
KHA2 130124Z 14012KT 02/M13 A302 RMK A01 T00151134  RH  032%=      5-min Rain = 0
KHA2 130125Z 13012KT 02/M13 A302 RMK A01 T00151134  RH  032%=      5-min Rain = 0
KHA2 130126Z 13013KT 02/M13 A302 RMK A01 T00151134  RH  032%=      5-min Rain = 0
KHA2 130127Z 13013KT 02/M13 A302 RMK A01 T00151134  RH  032%=      5-min Rain = 0
KHA2 130128Z 13012KT 02/M13 A302 RMK A01 T00151133  RH  032%=      5-min Rain = 0
KHA2 130129Z 14012KT 01/M13 A302 RMK A01 T00141134  RH  032%=      5-min Rain = 0
KHA2 130130Z 14012KT 01/M13 A302 RMK A01 T00141134  RH  032%=      5-min Rain = 0
KHA2 130131Z 14013KT 01/M13 A302 RMK A01 T00141133  RH  033%=      5-min Rain = 0
KHA2 130132Z 14012KT 01/M13 A302 RMK A01 T00141133  RH  033%=      5-min Rain = 0
KHA2 130133Z 14012KT 01/M13 A302 RMK A01 T00141133  RH  033%=      5-min Rain = 0
KHA2 130134Z 14010KT 01/M13 A302 RMK A01 T00141133  RH  033%=      5-min Rain = 0
KHA2 130135Z 14011KT 01/M13 A302 RMK A01 T00131133  RH  033%=      5-min Rain = 0
KHA2 130136Z 14011KT 01/M13 A3021 RMK A01 T00121133  RH  033%=      5-min Rain = 0
KHA2 130137Z 14012KT 01/M13 A3021 RMK A01 T00121133  RH  033%=      5-min Rain = 0
KHA2 130138Z 14012KT 01/M13 A3021 RMK A01 T00121132  RH  033%=      5-min Rain = 0
KHA2 130139Z 14011KT 01/M13 A3021 RMK A01 T00121132  RH  033%=      5-min Rain = 0
KHA2 130140Z 14012KT 01/M13 A3021 RMK A01 T00111133  RH  033%=      5-min Rain = 0
KHA2 130141Z 14012KT 01/M13 A3021 RMK A01 T00111133  RH  033%=      5-min Rain = 0
KHA2 130142Z 13012KT 01/M13 A3021 RMK A01 T00111132  RH  034%=      5-min Rain = 0
KHA2 130143Z 14012KT 01/M13 A3021 RMK A01 T00101132  RH  034%=      5-min Rain = 0
KHA2 130144Z 14013KT 01/M13 A3021 RMK A01 T00101132  RH  034%=      5-min Rain = 0
KHA2 130145Z 14013KT 01/M13 A3021 RMK A01 T00111132  RH  034%=      5-min Rain = 0
KHA2 130146Z 14013KT 01/M13 A3021 RMK A01 T00111131  RH  034%=      5-min Rain = 0
KHA2 130147Z 14012KT 01/M13 A3021 RMK A01 T00121130  RH  034%=      5-min Rain = 0
KHA2 130148Z 14013KT 01/M13 A3021 RMK A01 T00121130  RH  034%=      5-min Rain = 0
KHA2 130149Z 13013KT 01/M13 A3021 RMK A01 T00111130  RH  034%=      5-min Rain = 0
KHA2 130150Z 14013KT 01/M13 A3021 RMK A01 T00121130  RH  034%=      5-min Rain = 0
KHA2 130151Z 14012KT 01/M13 A3021 RMK A01 T00111130  RH  034%=      5-min Rain = 0
KHA2 130152Z 14014KT 01/M13 A3021 RMK A01 T00121130  RH  034%=      5-min Rain = 0
KHA2 130153Z 14013KT 01/M13 A3021 RMK A01 T00121129  RH  034%=      5-min Rain = 0
KHA2 130154Z 14012KT 01/M13 A3021 RMK A01 T00121129  RH  034%=      5-min Rain = 0
KHA2 130155Z 14012KT 01/M13 A3021 RMK A01 T00111129  RH  034%=      5-min Rain = 0
KHA2 130156Z 14012KT 01/M13 A3021 RMK A01 T00111129  RH  034%=      5-min Rain = 0
KHA2 130157Z 14012KT 01/M13 A3021 RMK A01 T00111129  RH  034%=      5-min Rain = 0
KHA2 130158Z 14011KT 01/M13 A3021 RMK A01 T00111129  RH  034%=      5-min Rain = 0
KHA2 130159Z 14012KT 01/M13 A3021 RMK A01 T00101129  RH  035%=      5-min Rain = 0
KHA2 130200Z 14014KT 01/M13 A3021 RMK A01 T00101129  RH  035%=      5-min Rain = 0
KHA2 130201Z 13015KT 01/M13 A302 RMK A01 T00101128  RH  035%=      5-min Rain = 0
KHA2 130202Z 13014KT 01/M13 A3021 RMK A01 T00111128  RH  035%=      5-min Rain = 0
KHA2 130203Z 14014KT 01/M13 A3021 RMK A01 T00111128  RH  035%=      5-min Rain = 0
KHA2 130204Z 14013KT 01/M13 A3021 RMK A01 T00111128  RH  035%=      5-min Rain = 0
KHA2 130205Z 14014KT 01/M13 A3021 RMK A01 T00111128  RH  035%=      5-min Rain = 0
KHA2 130206Z 14012KT 01/M13 A3021 RMK A01 T00111127  RH  035%=      5-min Rain = 0
KHA2 130207Z 14013KT 01/M13 A3021 RMK A01 T00101127  RH  035%=      5-min Rain = 0
KHA2 130208Z 14014KT 01/M13 A3021 RMK A01 T00101127  RH  035%=      5-min Rain = 0
KHA2 130209Z 14013KT 01/M13 A3021 RMK A01 T00101127  RH  035%=      5-min Rain = 0
KHA2 130210Z 13012KT 01/M13 A3021 RMK A01 T00101127  RH  035%=      5-min Rain = 0
KHA2 130211Z 13013KT 01/M13 A3021 RMK A01 T00101127  RH  035%=      5-min Rain = 0
KHA2 130212Z 13014KT 01/M13 A3021 RMK A01 T00101127  RH  035%=      5-min Rain = 0
KHA2 130213Z 13012KT 01/M13 A3021 RMK A01 T00101126  RH  035%=      5-min Rain = 0
KHA2 130214Z 13012KT 01/M13 A3021 RMK A01 T00101126  RH  035%=      5-min Rain = 0
KHA2 130215Z 14013KT 01/M13 A3021 RMK A01 T00101126  RH  035%=      5-min Rain = 0
KHA2 130216Z 13012KT 01/M13 A3021 RMK A01 T00101125  RH  036%=      5-min Rain = 0
KHA2 130217Z 13011KT 01/M13 A3021 RMK A01 T00091126  RH  036%=      5-min Rain = 0
KHA2 130218Z 13011KT 01/M13 A3021 RMK A01 T00091126  RH  036%=      5-min Rain = 0
KHA2 130219Z 13011KT 01/M13 A3021 RMK A01 T00091126  RH  036%=      5-min Rain = 0
KHA2 130220Z 13011KT 01/M13 A3021 RMK A01 T00091125  RH  036%=      5-min Rain = 0
KHA2 130221Z 13013KT 01/M13 A3021 RMK A01 T00081125  RH  036%=      5-min Rain = 0
KHA2 130222Z 13012KT 01/M13 A3021 RMK A01 T00081125  RH  036%=      5-min Rain = 0
KHA2 130223Z 14011KT 01/M13 A3021 RMK A01 T00081125  RH  036%=      5-min Rain = 0
KHA2 130224Z 14011KT 01/M13 A3021 RMK A01 T00081125  RH  036%=      5-min Rain = 0
KHA2 130225Z 14012KT 01/M12 A3022 RMK A01 T00081124  RH  036%=      5-min Rain = 0
KHA2 130226Z 14013KT 01/M12 A3022 RMK A01 T00081124  RH  037%=      5-min Rain = 0
KHA2 130227Z 14012KT 01/M12 A3022 RMK A01 T00081124  RH  037%=      5-min Rain = 0
KHA2 130228Z 14013KT 01/M12 A3022 RMK A01 T00081124  RH  037%=      5-min Rain = 0
KHA2 130229Z 14013KT 01/M12 A3022 RMK A01 T00081124  RH  037%=      5-min Rain = 0
KHA2 130230Z 13012KT 01/M12 A3022 RMK A01 T00091123  RH  037%=      5-min Rain = 0
KHA2 130231Z 13010KT 01/M12 A3022 RMK A01 T00081124  RH  037%=      5-min Rain = 0
KHA2 130232Z 14010KT 01/M12 A3022 RMK A01 T00081124  RH  037%=      5-min Rain = 0
KHA2 130233Z 13009KT 01/M12 A3022 RMK A01 T00071124  RH  037%=      5-min Rain = 0
KHA2 130234Z 13008KT 01/M12 A3022 RMK A01 T00071124  RH  037%=      5-min Rain = 0
KHA2 130235Z 13009KT 01/M12 A3022 RMK A01 T00061124  RH  037%=      5-min Rain = 0
KHA2 130236Z 13010KT 01/M12 A3023 RMK A01 T00051124  RH  037%=      5-min Rain = 0
KHA2 130237Z 13009KT 01/M12 A3023 RMK A01 T00061124  RH  037%=      5-min Rain = 0
KHA2 130238Z 12009KT 01/M12 A3023 RMK A01 T00061123  RH  037%=      5-min Rain = 0
KHA2 130239Z 13010KT 01/M12 A3023 RMK A01 T00061123  RH  037%=      5-min Rain = 0
KHA2 130240Z 12008KT 01/M12 A3023 RMK A01 T00061123  RH  037%=      5-min Rain = 0
KHA2 130241Z 12008KT 01/M12 A3023 RMK A01 T00051124  RH  037%=      5-min Rain = 0
KHA2 130242Z 12007KT 01/M12 A3023 RMK A01 T00051124  RH  037%=      5-min Rain = 0
KHA2 130243Z 12007KT 00/M12 A3023 RMK A01 T00041124  RH  038%=      5-min Rain = 0
KHA2 130244Z 12008KT 00/M12 A3023 RMK A01 T00041124  RH  038%=      5-min Rain = 0
KHA2 130245Z 13008KT 00/M12 A3023 RMK A01 T00041124  RH  038%=      5-min Rain = 0
KHA2 130246Z 12008KT 00/M12 A3023 RMK A01 T00041124  RH  038%=      5-min Rain = 0
KHA2 130247Z 12008KT 00/M12 A3023 RMK A01 T00031124  RH  038%=      5-min Rain = 0
KHA2 130248Z 12009KT 00/M12 A3023 RMK A01 T00031123  RH  038%=      5-min Rain = 0
KHA2 130249Z 13008KT 00/M12 A3023 RMK A01 T00031124  RH  038%=      5-min Rain = 0
KHA2 130250Z 13008KT 00/M12 A3023 RMK A01 T00021124  RH  038%=      5-min Rain = 0
KHA2 130251Z 13008KT 00/M12 A3023 RMK A01 T00021124  RH  038%=      5-min Rain = 0
KHA2 130252Z 13009KT 00/M12 A3023 RMK A01 T00021123  RH  038%=      5-min Rain = 0
KHA2 130253Z 13008KT 00/M12 A3023 RMK A01 T00021123  RH  038%=      5-min Rain = 0
KHA2 130254Z 13008KT 00/M12 A3023 RMK A01 T00011124  RH  039%=      5-min Rain = 0
KHA2 130255Z 13009KT 00/M12 A3023 RMK A01 T00011124  RH  039%=      5-min Rain = 0
KHA2 130256Z 13008KT 00/M12 A3024 RMK A01 T00011123  RH  039%=      5-min Rain = 0
KHA2 130257Z 13007KT 00/M12 A3024 RMK A01 T00021123  RH  039%=      5-min Rain = 0
KHA2 130258Z 12007KT 00/M12 A3024 RMK A01 T00021123  RH  039%=      5-min Rain = 0
KHA2 130259Z 12007KT 00/M12 A3024 RMK A01 T00011123  RH  039%=      5-min Rain = 0
KHA2 130300Z 13008KT 00/M12 A3024 RMK A01 T00011123  RH  039%=      5-min Rain = 0
KHA2 130301Z 12008KT 00/M12 A3024 RMK A01 T00011122  RH  039%=      5-min Rain = 0
KHA2 130302Z 13008KT 00/M12 A3024 RMK A01 T00011122  RH  039%=      5-min Rain = 0
KHA2 130303Z 13008KT 00/M12 A3024 RMK A01 T00011123  RH  039%=      5-min Rain = 0
KHA2 130304Z 13008KT 00/12 A3024 RMK A01 T00-00-123  RH  039%=      5-min Rain = 0
KHA2 130305Z 13008KT 00/12 A3024 RMK A01 T00000-122  RH  039%=      5-min Rain = 0
KHA2 130306Z 13009KT 00/12 A3024 RMK A01 T00-00-122  RH  039%=      5-min Rain = 0
KHA2 130307Z 13009KT M00/M12 A3024 RMK A01 T10011122  RH  039%=      5-min Rain = 0
KHA2 130308Z 13008KT M00/M12 A3024 RMK A01 T10011122  RH  039%=      5-min Rain = 0
KHA2 130309Z 13008KT M00/M12 A3024 RMK A01 T10011123  RH  040%=      5-min Rain = 0
KHA2 130310Z 13007KT M00/M12 A3024 RMK A01 T10021123  RH  040%=      5-min Rain = 0
KHA2 130311Z 12007KT M00/M12 A3024 RMK A01 T10031123  RH  040%=      5-min Rain = 0
KHA2 130312Z 13007KT M00/M12 A3024 RMK A01 T10031123  RH  040%=      5-min Rain = 0
KHA2 130313Z 12008KT M00/M12 A3024 RMK A01 T10041123  RH  040%=      5-min Rain = 0
KHA2 130314Z 12007KT M00/M12 A3024 RMK A01 T10041123  RH  040%=      5-min Rain = 0
KHA2 130315Z 12008KT M00/M12 A3024 RMK A01 T10031122  RH  040%=      5-min Rain = 0
KHA2 130316Z 13007KT M00/M12 A3024 RMK A01 T10041123  RH  040%=      5-min Rain = 0
KHA2 130317Z 12007KT M00/M12 A3024 RMK A01 T10041123  RH  040%=      5-min Rain = 0
KHA2 130318Z 12008KT M01/M12 A3024 RMK A01 T10051123  RH  040%=      5-min Rain = 0
KHA2 130319Z 13007KT M01/M12 A3024 RMK A01 T10051124  RH  040%=      5-min Rain = 0
KHA2 130320Z 13007KT M01/M12 A3024 RMK A01 T10061124  RH  041%=      5-min Rain = 0
KHA2 130321Z 12008KT M01/M12 A3024 RMK A01 T10061124  RH  041%=      5-min Rain = 0
KHA2 130322Z 13007KT M01/M12 A3024 RMK A01 T10061124  RH  041%=      5-min Rain = 0
KHA2 130323Z 13008KT M01/M12 A3024 RMK A01 T10071124  RH  041%=      5-min Rain = 0
KHA2 130324Z 13008KT M01/M12 A3024 RMK A01 T10071124  RH  041%=      5-min Rain = 0
KHA2 130325Z 13008KT M01/M12 A3024 RMK A01 T10071123  RH  041%=      5-min Rain = 0
KHA2 130326Z 12008KT M01/M12 A3024 RMK A01 T10081124  RH  041%=      5-min Rain = 0
KHA2 130327Z 13008KT M01/M12 A3024 RMK A01 T10091124  RH  041%=      5-min Rain = 0
KHA2 130328Z 13007KT M01/M12 A3024 RMK A01 T10091124  RH  041%=      5-min Rain = 0
KHA2 130329Z 12008KT M01/M12 A3024 RMK A01 T10091124  RH  041%=      5-min Rain = 0
KHA2 130330Z 13008KT M01/M12 A3024 RMK A01 T10101124  RH  042%=      5-min Rain = 0
KHA2 130331Z 12008KT M01/M12 A3024 RMK A01 T10101124  RH  042%=      5-min Rain = 0
KHA2 130332Z 12008KT M01/M12 A3024 RMK A01 T10101124  RH  042%=      5-min Rain = 0
KHA2 130333Z 12007KT M01/M12 A3024 RMK A01 T10111124  RH  042%=      5-min Rain = 0
KHA2 130334Z 12007KT M01/M12 A3024 RMK A01 T10111124  RH  042%=      5-min Rain = 0
KHA2 130335Z 12007KT M01/M12 A3024 RMK A01 T10111124  RH  042%=      5-min Rain = 0
KHA2 130336Z 12007KT M01/M12 A3024 RMK A01 T10121124  RH  042%=      5-min Rain = 0
KHA2 130337Z 12006KT M01/M12 A3024 RMK A01 T10121124  RH  042%=      5-min Rain = 0
KHA2 130338Z 12006KT M01/M12 A3024 RMK A01 T10121124  RH  042%=      5-min Rain = 0
KHA2 130339Z 12006KT M01/M13 A3024 RMK A01 T10131125  RH  042%=      5-min Rain = 0
KHA2 130340Z 12007KT M01/M13 A3024 RMK A01 T10131125  RH  042%=      5-min Rain = 0
KHA2 130341Z 12007KT M01/M13 A3024 RMK A01 T10131125  RH  042%=      5-min Rain = 0
KHA2 130342Z 11007KT M01/M13 A3024 RMK A01 T10141125  RH  042%=      5-min Rain = 0
KHA2 130343Z 12006KT M01/M13 A3024 RMK A01 T10141125  RH  042%=      5-min Rain = 0
KHA2 130344Z 11006KT M02/M13 A3024 RMK A01 T10151126  RH  043%=      5-min Rain = 0
KHA2 130345Z 11006KT M02/M13 A3024 RMK A01 T10151126  RH  043%=      5-min Rain = 0
KHA2 130346Z 12006KT M02/M13 A3024 RMK A01 T10151126  RH  043%=      5-min Rain = 0
KHA2 130347Z 11007KT M02/M13 A3024 RMK A01 T10161126  RH  043%=      5-min Rain = 0
KHA2 130348Z 12006KT M02/M13 A3024 RMK A01 T10161125  RH  043%=      5-min Rain = 0
KHA2 130349Z 12006KT M02/M13 A3024 RMK A01 T10151125  RH  043%=      5-min Rain = 0
KHA2 130350Z 12007KT M02/M13 A3024 RMK A01 T10161125  RH  043%=      5-min Rain = 0
KHA2 130351Z 12007KT M02/M13 A3024 RMK A01 T10161125  RH  043%=      5-min Rain = 0
KHA2 130352Z 12007KT M02/M13 A3024 RMK A01 T10161125  RH  043%=      5-min Rain = 0
KHA2 130353Z 12007KT M02/M12 A3024 RMK A01 T10151124  RH  043%=      5-min Rain = 0
KHA2 130354Z 12007KT M02/M13 A3024 RMK A01 T10161125  RH  043%=      5-min Rain = 0
KHA2 130355Z 12007KT M02/M13 A3024 RMK A01 T10171126  RH  043%=      5-min Rain = 0
KHA2 130356Z 12006KT M02/M13 A3025 RMK A01 T10171125  RH  043%=      5-min Rain = 0
KHA2 130357Z 13006KT M02/M13 A3025 RMK A01 T10181126  RH  043%=      5-min Rain = 0
KHA2 130358Z 13006KT M02/M13 A3025 RMK A01 T10181126  RH  044%=      5-min Rain = 0
KHA2 130359Z 12006KT M02/M13 A3025 RMK A01 T10191126  RH  044%=      5-min Rain = 0
KHA2 130400Z 12006KT M02/M13 A3025 RMK A01 T10211127  RH  044%=      5-min Rain = 0
KHA2 130401Z 12006KT M02/M13 A3025 RMK A01 T10221127  RH  044%=      5-min Rain = 0
KHA2 130402Z 12006KT M02/M13 A3025 RMK A01 T10231128  RH  044%=      5-min Rain = 0
KHA2 130403Z 12007KT M02/M13 A3025 RMK A01 T10241128  RH  045%=      5-min Rain = 0
KHA2 130404Z 12006KT M03/M13 A3025 RMK A01 T10251128  RH  045%=      5-min Rain = 0
KHA2 130405Z 12007KT M03/M13 A3025 RMK A01 T10251127  RH  045%=      5-min Rain = 0
KHA2 130406Z 11006KT M03/M13 A3025 RMK A01 T10251127  RH  045%=      5-min Rain = 0
KHA2 130407Z 11006KT M03/M13 A3025 RMK A01 T10261127  RH  046%=      5-min Rain = 0
KHA2 130408Z 11007KT M03/M13 A3025 RMK A01 T10261126  RH  046%=      5-min Rain = 0
KHA2 130409Z 10007KT M03/M12 A3025 RMK A01 T10261122  RH  048%=      5-min Rain = 0
KHA2 130410Z 10008KT M03/M12 A3025 RMK A01 T10251120  RH  048%=      5-min Rain = 0
KHA2 130411Z 10008KT M02/M12 A3025 RMK A01 T10241118  RH  048%=      5-min Rain = 0
KHA2 130412Z 11007KT M02/M12 A3025 RMK A01 T10231118  RH  048%=      5-min Rain = 0
KHA2 130413Z 11008KT M02/M12 A3025 RMK A01 T10231121  RH  047%=      5-min Rain = 0
KHA2 130414Z 12008KT M02/M12 A3025 RMK A01 T10241124  RH  046%=      5-min Rain = 0
KHA2 130415Z 12008KT M02/M13 A3025 RMK A01 T10241125  RH  046%=      5-min Rain = 0
KHA2 130416Z 12008KT M03/M13 A3025 RMK A01 T10251126  RH  046%=      5-min Rain = 0
KHA2 130417Z 12008KT M03/M13 A3025 RMK A01 T10261127  RH  046%=      5-min Rain = 0
KHA2 130418Z 12008KT M03/M13 A3025 RMK A01 T10281128  RH  046%=      5-min Rain = 0
KHA2 130419Z 13008KT M03/M13 A3025 RMK A01 T10281127  RH  046%=      5-min Rain = 0
KHA2 130420Z 13008KT M03/M13 A3025 RMK A01 T10281127  RH  047%=      5-min Rain = 0
KHA2 130421Z 13008KT M03/M13 A3025 RMK A01 T10281126  RH  047%=      5-min Rain = 0
KHA2 130422Z 13009KT M03/M13 A3025 RMK A01 T10281126  RH  047%=      5-min Rain = 0
KHA2 130423Z 13010KT M03/M13 A3024 RMK A01 T10281127  RH  047%=      5-min Rain = 0
KHA2 130424Z 13009KT M03/M13 A3024 RMK A01 T10291127  RH  047%=      5-min Rain = 0
KHA2 130425Z 13009KT M03/M13 A3025 RMK A01 T10301127  RH  047%=      5-min Rain = 0
KHA2 130426Z 13008KT M03/M13 A3025 RMK A01 T10301127  RH  047%=      5-min Rain = 0
KHA2 130427Z 14007KT M03/M13 A3025 RMK A01 T10311128  RH  047%=      5-min Rain = 0
KHA2 130428Z 14006KT M03/M13 A3025 RMK A01 T10321128  RH  048%=      5-min Rain = 0
KHA2 130429Z 14005KT M03/M13 A3025 RMK A01 T10331128  RH  048%=      5-min Rain = 0
KHA2 130430Z 14005KT M03/M13 A3025 RMK A01 T10341129  RH  048%=      5-min Rain = 0
KHA2 130431Z 14005KT M04/M13 A3025 RMK A01 T10351129  RH  048%=      5-min Rain = 0
KHA2 130432Z 14005KT M04/M13 A3025 RMK A01 T10361130  RH  048%=      5-min Rain = 0
KHA2 130433Z 13004KT M04/M13 A3025 RMK A01 T10371130  RH  049%=      5-min Rain = 0
KHA2 130434Z 13005KT M04/M13 A3026 RMK A01 T10381130  RH  049%=      5-min Rain = 0
KHA2 130435Z 12004KT M04/M13 A3026 RMK A01 T10391130  RH  049%=      5-min Rain = 0
KHA2 130436Z 12004KT M04/M13 A3026 RMK A01 T10391130  RH  049%=      5-min Rain = 0
KHA2 130437Z 12004KT M04/M13 A3026 RMK A01 T10391129  RH  050%=      5-min Rain = 0
KHA2 130438Z 12004KT M04/M13 A3026 RMK A01 T10391129  RH  050%=      5-min Rain = 0
KHA2 130439Z 12003KT M04/M13 A3026 RMK A01 T10391128  RH  050%=      5-min Rain = 0
KHA2 130440Z 12003KT M04/M13 A3026 RMK A01 T10391128  RH  050%=      5-min Rain = 0
KHA2 130441Z 12003KT M04/M13 A3026 RMK A01 T10391129  RH  050%=      5-min Rain = 0
KHA2 130442Z 12003KT M04/M13 A3026 RMK A01 T10391129  RH  050%=      5-min Rain = 0
KHA2 130443Z 12003KT M04/M13 A3026 RMK A01 T10391129  RH  050%=      5-min Rain = 0
KHA2 130444Z 13003KT M04/M13 A3026 RMK A01 T10401130  RH  050%=      5-min Rain = 0
KHA2 130445Z 13003KT M04/M13 A3026 RMK A01 T10401130  RH  050%=      5-min Rain = 0
KHA2 130446Z 14003KT M04/M13 A3026 RMK A01 T10401130  RH  050%=      5-min Rain = 0
KHA2 130447Z 14003KT M04/M13 A3026 RMK A01 T10391129  RH  050%=      5-min Rain = 0
KHA2 130448Z 14004KT M04/M13 A3026 RMK A01 T10391130  RH  049%=      5-min Rain = 0
KHA2 130449Z 14005KT M04/M13 A3026 RMK A01 T10391130  RH  049%=      5-min Rain = 0
KHA2 130450Z 13005KT M04/M13 A3026 RMK A01 T10391129  RH  049%=      5-min Rain = 0
KHA2 130451Z 13005KT M04/M13 A3026 RMK A01 T10381129  RH  049%=      5-min Rain = 0
KHA2 130452Z 13006KT M04/M13 A3026 RMK A01 T10381130  RH  049%=      5-min Rain = 0
KHA2 130453Z 13007KT M04/M13 A3026 RMK A01 T10401132  RH  049%=      5-min Rain = 0
KHA2 130454Z 13007KT M04/M13 A3026 RMK A01 T10421134  RH  049%=      5-min Rain = 0
KHA2 130455Z 13007KT M05/M14 A3026 RMK A01 T10451137  RH  049%=      5-min Rain = 0
KHA2 130456Z 14006KT M05/M14 A3026 RMK A01 T10481137  RH  050%=      5-min Rain = 0
KHA2 130457Z 14006KT M05/M14 A3026 RMK A01 T10491136  RH  050%=      5-min Rain = 0
KHA2 130458Z 14006KT M05/M14 A3026 RMK A01 T10491136  RH  051%=      5-min Rain = 0
KHA2 130459Z 14006KT M05/M14 A3026 RMK A01 T10501137  RH  051%=      5-min Rain = 0
KHA2 130500Z 14006KT M05/M14 A3026 RMK A01 T10511137  RH  051%=      5-min Rain = 0
KHA2 130501Z 13006KT M05/M14 A3026 RMK A01 T10511137  RH  051%=      5-min Rain = 0
KHA2 130502Z 13006KT M05/M14 A3026 RMK A01 T10511136  RH  051%=      5-min Rain = 0
KHA2 130503Z 13006KT M05/M14 A3026 RMK A01 T10511136  RH  052%=      5-min Rain = 0
KHA2 130504Z 13006KT M05/M14 A3026 RMK A01 T10511136  RH  052%=      5-min Rain = 0
KHA2 130505Z 12005KT M05/M13 A3026 RMK A01 T10521133  RH  053%=      5-min Rain = 0
KHA2 130506Z 12005KT M05/M13 A3026 RMK A01 T10511130  RH  054%=      5-min Rain = 0
KHA2 130507Z 12006KT M05/M13 A3026 RMK A01 T10511128  RH  055%=      5-min Rain = 0
KHA2 130508Z 12006KT M05/M13 A3026 RMK A01 T10501127  RH  055%=      5-min Rain = 0
KHA2 130509Z 12006KT M05/M13 A3026 RMK A01 T10501128  RH  055%=      5-min Rain = 0
KHA2 130510Z 12007KT M05/M13 A3026 RMK A01 T10501130  RH  053%=      5-min Rain = 0
KHA2 130511Z 12007KT M05/M13 A3026 RMK A01 T10501133  RH  052%=      5-min Rain = 0
KHA2 130512Z 13007KT M05/M14 A3026 RMK A01 T10511136  RH  052%=      5-min Rain = 0
KHA2 130513Z 13007KT M05/M14 A3026 RMK A01 T10531138  RH  051%=      5-min Rain = 0
KHA2 130514Z 13007KT M05/M14 A3026 RMK A01 T10541139  RH  051%=      5-min Rain = 0
KHA2 130515Z 13007KT M06/M14 A3025 RMK A01 T10551139  RH  052%=      5-min Rain = 0
KHA2 130516Z 13007KT M06/M14 A3025 RMK A01 T10561139  RH  052%=      5-min Rain = 0
KHA2 130517Z 14008KT M06/M14 A3025 RMK A01 T10571139  RH  052%=      5-min Rain = 0
KHA2 130518Z 14008KT M06/M14 A3025 RMK A01 T10571138  RH  053%=      5-min Rain = 0
KHA2 130519Z 14008KT M06/M14 A3025 RMK A01 T10571138  RH  053%=      5-min Rain = 0
KHA2 130520Z 14008KT M06/M14 A3025 RMK A01 T10571137  RH  053%=      5-min Rain = 0
KHA2 130521Z 14008KT M06/M14 A3025 RMK A01 T10571137  RH  053%=      5-min Rain = 0
KHA2 130522Z 14008KT M06/M14 A3025 RMK A01 T10581137  RH  053%=      5-min Rain = 0
KHA2 130523Z 14008KT M06/M14 A3025 RMK A01 T10581138  RH  053%=      5-min Rain = 0
KHA2 130524Z 14008KT M06/M14 A3025 RMK A01 T10591139  RH  053%=      5-min Rain = 0
KHA2 130525Z 14008KT M06/M14 A3025 RMK A01 T10601140  RH  053%=      5-min Rain = 0
KHA2 130526Z 14008KT M06/M14 A3025 RMK A01 T10621141  RH  053%=      5-min Rain = 0
KHA2 130527Z 14008KT M06/M14 A3025 RMK A01 T10631142  RH  054%=      5-min Rain = 0
KHA2 130528Z 14008KT M06/M14 A3025 RMK A01 T10641142  RH  054%=      5-min Rain = 0
KHA2 130529Z 14008KT M07/M14 A3025 RMK A01 T10651142  RH  054%=      5-min Rain = 0
KHA2 130530Z 14008KT M07/M14 A3025 RMK A01 T10661143  RH  054%=      5-min Rain = 0
KHA2 130531Z 14007KT M07/M14 A3025 RMK A01 T10661143  RH  055%=      5-min Rain = 0
KHA2 130532Z 14007KT M07/M14 A3025 RMK A01 T10671143  RH  055%=      5-min Rain = 0
KHA2 130533Z 14007KT M07/M14 A3025 RMK A01 T10671143  RH  055%=      5-min Rain = 0
KHA2 130534Z 13007KT M07/M14 A3025 RMK A01 T10681143  RH  055%=      5-min Rain = 0
KHA2 130535Z 13007KT M07/M14 A3025 RMK A01 T10691143  RH  055%=      5-min Rain = 0
KHA2 130536Z 13007KT M07/M14 A3025 RMK A01 T10691143  RH  056%=      5-min Rain = 0
KHA2 130537Z 13007KT M07/M14 A3025 RMK A01 T10691142  RH  056%=      5-min Rain = 0
KHA2 130538Z 13007KT M07/M14 A3025 RMK A01 T10681140  RH  056%=      5-min Rain = 0
KHA2 130539Z 13007KT M07/M14 A3025 RMK A01 T10681140  RH  057%=      5-min Rain = 0
KHA2 130540Z 13007KT M07/M14 A3025 RMK A01 T10671139  RH  057%=      5-min Rain = 0
KHA2 130541Z 13007KT M07/M14 A3025 RMK A01 T10671138  RH  057%=      5-min Rain = 0
KHA2 130542Z 13006KT M07/M14 A3025 RMK A01 T10661138  RH  057%=      5-min Rain = 0
KHA2 130543Z 13006KT M07/M14 A3025 RMK A01 T10661137  RH  057%=      5-min Rain = 0
KHA2 130544Z 13005KT M07/M14 A3025 RMK A01 T10651137  RH  057%=      5-min Rain = 0
KHA2 130545Z 13005KT M07/M14 A3025 RMK A01 T10651137  RH  057%=      5-min Rain = 0
KHA2 130546Z 13005KT M07/M14 A3025 RMK A01 T10651137  RH  056%=      5-min Rain = 0
KHA2 130547Z 13004KT M07/M14 A3025 RMK A01 T10651138  RH  056%=      5-min Rain = 0
KHA2 130548Z 13004KT M07/M14 A3025 RMK A01 T10651137  RH  057%=      5-min Rain = 0
KHA2 130549Z 13004KT M07/M14 A3025 RMK A01 T10651136  RH  057%=      5-min Rain = 0
KHA2 130550Z 13004KT M07/M14 A3025 RMK A01 T10651136  RH  057%=      5-min Rain = 0
KHA2 130551Z 13004KT M06/M14 A3025 RMK A01 T10641135  RH  057%=      5-min Rain = 0
KHA2 130552Z 12004KT M06/M13 A3025 RMK A01 T10631133  RH  057%=      5-min Rain = 0
KHA2 130553Z 13004KT M06/M13 A3025 RMK A01 T10601132  RH  057%=      5-min Rain = 0
KHA2 130554Z 13005KT M06/M13 A3025 RMK A01 T10581130  RH  057%=      5-min Rain = 0
KHA2 130555Z 13005KT M06/M13 A3025 RMK A01 T10561130  RH  056%=      5-min Rain = 0
KHA2 130556Z 13005KT M06/M13 A3025 RMK A01 T10551130  RH  055%=      5-min Rain = 0
KHA2 130557Z 13005KT M05/M13 A3025 RMK A01 T10541131  RH  055%=      5-min Rain = 0
KHA2 130558Z 13005KT M05/M13 A3025 RMK A01 T10541132  RH  054%=      5-min Rain = 0
KHA2 130559Z 13005KT M06/M13 A3025 RMK A01 T10551133  RH  054%=      5-min Rain = 0

Page generated in 0.1448 seconds.